PWSweather.com
Personal Weather Stations
Station Observations
KNCPINNA2
Pinnacle , Pinnacle, NC 27043

Pinnacle Pinnacle, NC 27043

Lat: 36.352557, Lon: -80.4434349

Elevation: 898

Station Type: Ambient Weather WS-1090

Latest ConditionsUpdated 11:54:00 AM EST Monday, Jan 23, 2017
Currently Today's Max Today's Min Today's Average
Temperature 52.3°F11.3°C 53.1°F11.7°C 48.6°F9.2°C 49.7°F9.8°C
Dew Point 52.1°F11.2°C 52.8°F11.6°C 48.3°F9.1°C 49.4°F9.7°C
Winds 0.7 mph SE1.1 kmh SE 8.3 mph E13.4 kmh E - 2.1 mph 3.4 kmh
Wind Gusts 6.0 mph9.7 kmh 15.2 mph24.5 kmh - -
Humidity 99% 99% 99% 99%
Pressure 29.10 in985.4 mb 29.20 in988.8 mb 29.02 in982.7 mb -
Precipitation - 0.85 in21.6 mm - -
Hour Temp Dew Point Humidity Winds Wind Gusts Pressure Precip Precip Rate Daily Precip Total
11:54 AM 52.3°F11.3°C 52.1°F11.2°C 99% 0.7 mph SE1.1 kmh SE 6.0 mph9.7 kmh 29.10 in985.4 mb 0.00 in0.0 mm 0.00 in0.0 mm 0.85 in21.6 mm
11:53 AM 52.3°F11.3°C 52.1°F11.2°C 99% 0.7 mph SE1.1 kmh SE 6.0 mph9.7 kmh 29.10 in985.4 mb 0.00 in0.0 mm 0.00 in0.0 mm 0.85 in21.6 mm
11:52 AM 52.3°F11.3°C 52.1°F11.2°C 99% 1.6 mph SE2.6 kmh SE 6.0 mph9.7 kmh 29.10 in985.4 mb 0.00 in0.0 mm 0.00 in0.0 mm 0.85 in21.6 mm
11:51 AM 52.3°F11.3°C 52.1°F11.2°C 99% 2.2 mph SE3.5 kmh SE 6.0 mph9.7 kmh 29.11 in985.8 mb 0.00 in0.0 mm 0.00 in0.0 mm 0.85 in21.6 mm
11:50 AM 52.3°F11.3°C 52.1°F11.2°C 99% 0.7 mph SE1.1 kmh SE 6.0 mph9.7 kmh 29.11 in985.8 mb 0.00 in0.0 mm 0.00 in0.0 mm 0.85 in21.6 mm
11:49 AM 52.5°F11.4°C 52.3°F11.3°C 99% 0.7 mph SE1.1 kmh SE 6.0 mph9.7 kmh 29.10 in985.4 mb 0.00 in0.0 mm 0.00 in0.0 mm 0.85 in21.6 mm
11:48 AM 52.5°F11.4°C 52.3°F11.3°C 99% 1.6 mph SE2.6 kmh SE 6.0 mph9.7 kmh 29.10 in985.4 mb 0.00 in0.0 mm 0.00 in0.0 mm 0.85 in21.6 mm
11:47 AM 52.5°F11.4°C 52.3°F11.3°C 99% 3.1 mph SE5.0 kmh SE 6.0 mph9.7 kmh 29.10 in985.4 mb 0.00 in0.0 mm 0.00 in0.0 mm 0.85 in21.6 mm
11:46 AM 52.7°F11.5°C 52.4°F11.3°C 99% 2.2 mph SE3.5 kmh SE 5.4 mph8.7 kmh 29.10 in985.4 mb 0.00 in0.0 mm 0.00 in0.0 mm 0.85 in21.6 mm
11:45 AM 52.7°F11.5°C 52.4°F11.3°C 99% 2.2 mph SE3.5 kmh SE 5.4 mph8.7 kmh 29.10 in985.4 mb 0.00 in0.0 mm 0.00 in0.0 mm 0.85 in21.6 mm
11:44 AM 52.9°F11.6°C 52.6°F11.4°C 99% 2.2 mph SSE3.5 kmh SSE 5.4 mph8.7 kmh 29.11 in985.8 mb 0.00 in0.0 mm 0.00 in0.0 mm 0.85 in21.6 mm
11:43 AM 52.9°F11.6°C 52.6°F11.4°C 99% 0.7 mph SSE1.1 kmh SSE 5.4 mph8.7 kmh 29.10 in985.4 mb 0.00 in0.0 mm 0.00 in0.0 mm 0.85 in21.6 mm
11:42 AM 52.9°F11.6°C 52.6°F11.4°C 99% 3.1 mph S5.0 kmh S 6.0 mph9.7 kmh 29.10 in985.4 mb 0.00 in0.0 mm 0.00 in0.0 mm 0.85 in21.6 mm
11:41 AM 53.1°F11.7°C 52.8°F11.6°C 99% 1.6 mph S2.6 kmh S 6.0 mph9.7 kmh 29.10 in985.4 mb 0.00 in0.0 mm 0.00 in0.0 mm 0.85 in21.6 mm
11:40 AM 53.1°F11.7°C 52.8°F11.6°C 99% 0.7 mph S1.1 kmh S 6.0 mph9.7 kmh 29.10 in985.4 mb 0.00 in0.0 mm 0.00 in0.0 mm 0.85 in21.6 mm
11:39 AM 53.1°F11.7°C 52.8°F11.6°C 99% 0.7 mph SSW1.1 kmh SSW 6.0 mph9.7 kmh 29.10 in985.4 mb 0.00 in0.0 mm 0.00 in0.0 mm 0.85 in21.6 mm
11:38 AM 53.1°F11.7°C 52.8°F11.6°C 99% 0.7 mph SSW1.1 kmh SSW 6.0 mph9.7 kmh 29.10 in985.4 mb 0.00 in0.0 mm 0.00 in0.0 mm 0.85 in21.6 mm
11:37 AM 52.9°F11.6°C 52.6°F11.4°C 99% 0.7 mph SSW1.1 kmh SSW 6.0 mph9.7 kmh 29.10 in985.4 mb 0.00 in0.0 mm 0.00 in0.0 mm 0.85 in21.6 mm
11:36 AM 52.9°F11.6°C 52.6°F11.4°C 99% 0.7 mph SSW1.1 kmh SSW 6.0 mph9.7 kmh 29.10 in985.4 mb 0.00 in0.0 mm 0.00 in0.0 mm 0.85 in21.6 mm
11:35 AM 52.7°F11.5°C 52.4°F11.3°C 99% 2.2 mph S3.5 kmh S 6.0 mph9.7 kmh 29.11 in985.8 mb 0.00 in0.0 mm 0.00 in0.0 mm 0.85 in21.6 mm
11:34 AM 52.7°F11.5°C 52.4°F11.3°C 99% Calm Calm 6.0 mph9.7 kmh 29.10 in985.4 mb 0.00 in0.0 mm 0.00 in0.0 mm 0.85 in21.6 mm
11:33 AM 52.5°F11.4°C 52.3°F11.3°C 99% 0.7 mph S1.1 kmh S 6.0 mph9.7 kmh 29.10 in985.4 mb 0.00 in0.0 mm 0.00 in0.0 mm 0.85 in21.6 mm
11:32 AM 52.3°F11.3°C 52.1°F11.2°C 99% 3.1 mph S5.0 kmh S 6.0 mph9.7 kmh 29.10 in985.4 mb 0.00 in0.0 mm 0.00 in0.0 mm 0.85 in21.6 mm
11:31 AM 52.3°F11.3°C 52.1°F11.2°C 99% 0.7 mph SE1.1 kmh SE 5.4 mph8.7 kmh 29.10 in985.4 mb 0.00 in0.0 mm 0.00 in0.0 mm 0.85 in21.6 mm
11:30 AM 52.3°F11.3°C 52.1°F11.2°C 99% 0.7 mph SE1.1 kmh SE 5.4 mph8.7 kmh 29.10 in985.4 mb 0.00 in0.0 mm 0.00 in0.0 mm 0.85 in21.6 mm
11:29 AM 52.2°F11.2°C 51.9°F11.1°C 99% 1.6 mph SE2.6 kmh SE 5.4 mph8.7 kmh 29.10 in985.4 mb 0.00 in0.0 mm 0.00 in0.0 mm 0.85 in21.6 mm
11:28 AM 52.2°F11.2°C 51.9°F11.1°C 99% 0.7 mph SE1.1 kmh SE 5.4 mph8.7 kmh 29.10 in985.4 mb 0.00 in0.0 mm 0.00 in0.0 mm 0.85 in21.6 mm
11:27 AM 52.2°F11.2°C 51.9°F11.1°C 99% 0.7 mph SE1.1 kmh SE 7.6 mph12.2 kmh 29.10 in985.4 mb 0.00 in0.0 mm 0.00 in0.0 mm 0.85 in21.6 mm
11:26 AM 52.2°F11.2°C 51.9°F11.1°C 99% 0.7 mph ESE1.1 kmh ESE 7.6 mph12.2 kmh 29.10 in985.4 mb 0.00 in0.0 mm 0.00 in0.0 mm 0.85 in21.6 mm
11:25 AM 52.0°F11.1°C 51.7°F10.9°C 99% 1.6 mph SE2.6 kmh SE 7.6 mph12.2 kmh 29.10 in985.4 mb 0.00 in0.0 mm 0.00 in0.0 mm 0.85 in21.6 mm
11:24 AM 52.2°F11.2°C 51.9°F11.1°C 99% 0.7 mph SE1.1 kmh SE 7.6 mph12.2 kmh 29.10 in985.4 mb 0.00 in0.0 mm 0.00 in0.0 mm 0.85 in21.6 mm
11:23 AM 52.0°F11.1°C 51.7°F10.9°C 99% 0.7 mph SE1.1 kmh SE 7.6 mph12.2 kmh 29.10 in985.4 mb 0.00 in0.0 mm 0.00 in0.0 mm 0.85 in21.6 mm
11:22 AM 52.0°F11.1°C 51.7°F10.9°C 99% 1.6 mph SE2.6 kmh SE 7.6 mph12.2 kmh 29.10 in985.4 mb 0.00 in0.0 mm 0.00 in0.0 mm 0.85 in21.6 mm
11:21 AM 51.8°F11.0°C 51.5°F10.8°C 99% 1.6 mph ESE2.6 kmh ESE 7.6 mph12.2 kmh 29.10 in985.4 mb 0.00 in0.0 mm 0.00 in0.0 mm 0.85 in21.6 mm
11:20 AM 51.8°F11.0°C 51.5°F10.8°C 99% 1.6 mph ESE2.6 kmh ESE 7.6 mph12.2 kmh 29.10 in985.4 mb 0.00 in0.0 mm 0.00 in0.0 mm 0.85 in21.6 mm
11:19 AM 51.8°F11.0°C 51.5°F10.8°C 99% 2.2 mph ESE3.5 kmh ESE 7.6 mph12.2 kmh 29.10 in985.4 mb 0.00 in0.0 mm 0.00 in0.0 mm 0.85 in21.6 mm
11:18 AM 51.8°F11.0°C 51.5°F10.8°C 99% 2.2 mph SE3.5 kmh SE 7.6 mph12.2 kmh 29.10 in985.4 mb 0.00 in0.0 mm 0.00 in0.0 mm 0.85 in21.6 mm
11:17 AM 51.8°F11.0°C 51.5°F10.8°C 99% 2.2 mph SE3.5 kmh SE 6.9 mph11.1 kmh 29.10 in985.4 mb 0.00 in0.0 mm 0.00 in0.0 mm 0.85 in21.6 mm
11:16 AM 51.8°F11.0°C 51.5°F10.8°C 99% 1.6 mph SE2.6 kmh SE 6.0 mph9.7 kmh 29.10 in985.4 mb 0.00 in0.0 mm 0.00 in0.0 mm 0.85 in21.6 mm
11:15 AM 51.8°F11.0°C 51.5°F10.8°C 99% 1.6 mph SSE2.6 kmh SSE 6.0 mph9.7 kmh 29.10 in985.4 mb 0.00 in0.0 mm 0.00 in0.0 mm 0.85 in21.6 mm
11:14 AM 51.8°F11.0°C 51.5°F10.8°C 99% 0.7 mph SSE1.1 kmh SSE 6.0 mph9.7 kmh 29.10 in985.4 mb 0.00 in0.0 mm 0.00 in0.0 mm 0.85 in21.6 mm
11:13 AM 51.8°F11.0°C 51.5°F10.8°C 99% 1.6 mph SE2.6 kmh SE 6.0 mph9.7 kmh 29.10 in985.4 mb 0.00 in0.0 mm 0.00 in0.0 mm 0.85 in21.6 mm
11:12 AM 51.6°F10.9°C 51.4°F10.8°C 99% 0.7 mph SE1.1 kmh SE 6.0 mph9.7 kmh 29.10 in985.4 mb 0.00 in0.0 mm 0.00 in0.0 mm 0.85 in21.6 mm
11:11 AM 51.6°F10.9°C 51.4°F10.8°C 99% 1.6 mph SE2.6 kmh SE 6.0 mph9.7 kmh 29.10 in985.4 mb 0.00 in0.0 mm 0.00 in0.0 mm 0.85 in21.6 mm
11:10 AM 51.6°F10.9°C 51.4°F10.8°C 99% 0.7 mph SE1.1 kmh SE 6.0 mph9.7 kmh 29.10 in985.4 mb 0.00 in0.0 mm 0.00 in0.0 mm 0.85 in21.6 mm
11:09 AM 51.6°F10.9°C 51.4°F10.8°C 99% 0.7 mph SE1.1 kmh SE 6.0 mph9.7 kmh 29.10 in985.4 mb 0.00 in0.0 mm 0.00 in0.0 mm 0.85 in21.6 mm
11:08 AM 51.4°F10.8°C 51.2°F10.7°C 99% 1.6 mph SE2.6 kmh SE 6.0 mph9.7 kmh 29.10 in985.4 mb 0.00 in0.0 mm 0.00 in0.0 mm 0.85 in21.6 mm
11:07 AM 51.3°F10.7°C 51.0°F10.6°C 99% 3.1 mph SE5.0 kmh SE 6.0 mph9.7 kmh 29.10 in985.4 mb 0.00 in0.0 mm 0.00 in0.0 mm 0.85 in21.6 mm
11:06 AM 51.3°F10.7°C 51.0°F10.6°C 99% Calm Calm 4.5 mph7.2 kmh 29.09 in985.1 mb 0.00 in0.0 mm 0.00 in0.0 mm 0.85 in21.6 mm
11:05 AM 51.1°F10.6°C 50.8°F10.4°C 99% 1.6 mph SE2.6 kmh SE 4.5 mph7.2 kmh 29.09 in985.1 mb 0.00 in0.0 mm 0.00 in0.0 mm 0.85 in21.6 mm
11:04 AM 51.1°F10.6°C 50.8°F10.4°C 99% 1.6 mph SE2.6 kmh SE 4.5 mph7.2 kmh 29.10 in985.4 mb 0.00 in0.0 mm 0.00 in0.0 mm 0.85 in21.6 mm
11:03 AM 51.1°F10.6°C 50.8°F10.4°C 99% 1.6 mph SSE2.6 kmh SSE 4.5 mph7.2 kmh 29.10 in985.4 mb 0.00 in0.0 mm 0.00 in0.0 mm 0.85 in21.6 mm
11:02 AM 51.1°F10.6°C 50.8°F10.4°C 99% 2.2 mph SSE3.5 kmh SSE 4.5 mph7.2 kmh 29.09 in985.1 mb 0.00 in0.0 mm 0.00 in0.0 mm 0.85 in21.6 mm
11:01 AM 51.1°F10.6°C 50.8°F10.4°C 99% 0.7 mph SSE1.1 kmh SSE 3.8 mph6.1 kmh 29.10 in985.4 mb 0.00 in0.0 mm 0.00 in0.0 mm 0.85 in21.6 mm
11:00 AM 51.1°F10.6°C 50.8°F10.4°C 99% 0.7 mph SSE1.1 kmh SSE 3.8 mph6.1 kmh 29.09 in985.1 mb 0.00 in0.0 mm 0.00 in0.0 mm 0.85 in21.6 mm
10:59 AM 51.1°F10.6°C 50.8°F10.4°C 99% 0.7 mph SE1.1 kmh SE 3.8 mph6.1 kmh 29.10 in985.4 mb 0.00 in0.0 mm 0.00 in0.0 mm 0.85 in21.6 mm
10:58 AM 51.1°F10.6°C 50.8°F10.4°C 99% Calm Calm 4.5 mph7.2 kmh 29.10 in985.4 mb 0.00 in0.0 mm 0.00 in0.0 mm 0.85 in21.6 mm
10:57 AM 51.1°F10.6°C 50.8°F10.4°C 99% 1.6 mph SE2.6 kmh SE 4.5 mph7.2 kmh 29.09 in985.1 mb 0.00 in0.0 mm 0.00 in0.0 mm 0.85 in21.6 mm
10:56 AM 51.1°F10.6°C 50.8°F10.4°C 99% 0.7 mph SE1.1 kmh SE 4.5 mph7.2 kmh 29.10 in985.4 mb 0.00 in0.0 mm 0.00 in0.0 mm 0.85 in21.6 mm
10:55 AM 51.1°F10.6°C 50.8°F10.4°C 99% 0.7 mph SE1.1 kmh SE 5.4 mph8.7 kmh 29.09 in985.1 mb 0.00 in0.0 mm 0.00 in0.0 mm 0.85 in21.6 mm
10:54 AM 51.1°F10.6°C 50.8°F10.4°C 99% 0.7 mph ESE1.1 kmh ESE 5.4 mph8.7 kmh 29.10 in985.4 mb 0.00 in0.0 mm 0.00 in0.0 mm 0.85 in21.6 mm
10:53 AM 51.1°F10.6°C 50.8°F10.4°C 99% 0.7 mph E1.1 kmh E 5.4 mph8.7 kmh 29.09 in985.1 mb 0.00 in0.0 mm 0.00 in0.0 mm 0.85 in21.6 mm
10:52 AM 51.1°F10.6°C 50.8°F10.4°C 99% Calm Calm 5.4 mph8.7 kmh 29.10 in985.4 mb 0.00 in0.0 mm 0.00 in0.0 mm 0.85 in21.6 mm
10:51 AM 50.9°F10.5°C 50.6°F10.3°C 99% 1.6 mph E2.6 kmh E 5.4 mph8.7 kmh 29.09 in985.1 mb 0.00 in0.0 mm 0.00 in0.0 mm 0.85 in21.6 mm
10:50 AM 50.9°F10.5°C 50.6°F10.3°C 99% 1.6 mph E2.6 kmh E 5.4 mph8.7 kmh 29.09 in985.1 mb 0.00 in0.0 mm 0.00 in0.0 mm 0.85 in21.6 mm
10:49 AM 50.9°F10.5°C 50.6°F10.3°C 99% 1.6 mph E2.6 kmh E 9.2 mph14.8 kmh 29.09 in985.1 mb 0.00 in0.0 mm 0.00 in0.0 mm 0.85 in21.6 mm
10:48 AM 50.9°F10.5°C 50.6°F10.3°C 99% 2.2 mph E3.5 kmh E 9.2 mph14.8 kmh 29.09 in985.1 mb 0.00 in0.0 mm 0.00 in0.0 mm 0.85 in21.6 mm
10:47 AM 50.9°F10.5°C 50.6°F10.3°C 99% 0.7 mph NE1.1 kmh NE 9.2 mph14.8 kmh 29.09 in985.1 mb 0.00 in0.0 mm 0.00 in0.0 mm 0.85 in21.6 mm
10:46 AM 50.9°F10.5°C 50.6°F10.3°C 99% 1.6 mph NNE2.6 kmh NNE 9.2 mph14.8 kmh 29.09 in985.1 mb 0.00 in0.0 mm 0.00 in0.0 mm 0.85 in21.6 mm
10:45 AM 50.9°F10.5°C 50.6°F10.3°C 99% 1.6 mph NNE2.6 kmh NNE 9.2 mph14.8 kmh 29.09 in985.1 mb 0.00 in0.0 mm 0.00 in0.0 mm 0.85 in21.6 mm
10:44 AM 50.9°F10.5°C 50.6°F10.3°C 99% 1.6 mph NE2.6 kmh NE 9.2 mph14.8 kmh 29.09 in985.1 mb 0.00 in0.0 mm 0.00 in0.0 mm 0.85 in21.6 mm
10:43 AM 50.9°F10.5°C 50.6°F10.3°C 99% 0.7 mph E1.1 kmh E 9.2 mph14.8 kmh 29.09 in985.1 mb 0.00 in0.0 mm 0.00 in0.0 mm 0.85 in21.6 mm
10:42 AM 50.7°F10.4°C 50.5°F10.3°C 99% 1.6 mph ENE2.6 kmh ENE 9.2 mph14.8 kmh 29.09 in985.1 mb 0.00 in0.0 mm 0.00 in0.0 mm 0.85 in21.6 mm
10:41 AM 50.9°F10.5°C 50.6°F10.3°C 99% 0.7 mph ENE1.1 kmh ENE 9.2 mph14.8 kmh 29.09 in985.1 mb 0.00 in0.0 mm 0.00 in0.0 mm 0.85 in21.6 mm
10:40 AM 50.7°F10.4°C 50.5°F10.3°C 99% 1.6 mph NE2.6 kmh NE 9.2 mph14.8 kmh 29.09 in985.1 mb 0.00 in0.0 mm 0.00 in0.0 mm 0.85 in21.6 mm
10:39 AM 50.7°F10.4°C 50.5°F10.3°C 99% 5.4 mph S8.7 kmh S 9.2 mph14.8 kmh 29.09 in985.1 mb 0.00 in0.0 mm 0.00 in0.0 mm 0.85 in21.6 mm
10:38 AM 50.7°F10.4°C 50.5°F10.3°C 99% 2.2 mph NW3.5 kmh NW 8.3 mph13.4 kmh 29.09 in985.1 mb 0.00 in0.0 mm 0.00 in0.0 mm 0.85 in21.6 mm
10:37 AM 50.7°F10.4°C 50.5°F10.3°C 99% 3.1 mph SSE5.0 kmh SSE 8.3 mph13.4 kmh 29.09 in985.1 mb 0.00 in0.0 mm 0.00 in0.0 mm 0.85 in21.6 mm
10:36 AM 50.7°F10.4°C 50.5°F10.3°C 99% 0.7 mph SE1.1 kmh SE 8.3 mph13.4 kmh 29.09 in985.1 mb 0.00 in0.0 mm 0.00 in0.0 mm 0.85 in21.6 mm
10:35 AM 50.7°F10.4°C 50.5°F10.3°C 99% 3.1 mph SE5.0 kmh SE 8.3 mph13.4 kmh 29.09 in985.1 mb 0.00 in0.0 mm 0.00 in0.0 mm 0.85 in21.6 mm
10:34 AM 50.7°F10.4°C 50.5°F10.3°C 99% 3.1 mph S5.0 kmh S 8.3 mph13.4 kmh 29.09 in985.1 mb 0.00 in0.0 mm 0.00 in0.0 mm 0.85 in21.6 mm
10:33 AM 50.7°F10.4°C 50.5°F10.3°C 99% 3.1 mph SSW5.0 kmh SSW 8.3 mph13.4 kmh 29.08 in984.8 mb 0.00 in0.0 mm 0.00 in0.0 mm 0.85 in21.6 mm
10:32 AM 50.7°F10.4°C 50.5°F10.3°C 99% 1.6 mph SW2.6 kmh SW 8.3 mph13.4 kmh 29.08 in984.8 mb 0.00 in0.0 mm 0.00 in0.0 mm 0.85 in21.6 mm
10:31 AM 50.5°F10.3°C 50.3°F10.2°C 99% 0.7 mph SSW1.1 kmh SSW 8.3 mph13.4 kmh 29.09 in985.1 mb 0.00 in0.0 mm 0.00 in0.0 mm 0.85 in21.6 mm
10:30 AM 50.7°F10.4°C 50.5°F10.3°C 99% Calm Calm 8.3 mph13.4 kmh 29.08 in984.8 mb 0.00 in0.0 mm 0.00 in0.0 mm 0.85 in21.6 mm
10:29 AM 50.7°F10.4°C 50.5°F10.3°C 99% 2.2 mph S3.5 kmh S 6.0 mph9.7 kmh 29.08 in984.8 mb 0.00 in0.0 mm 0.00 in0.0 mm 0.85 in21.6 mm
10:28 AM 50.7°F10.4°C 50.5°F10.3°C 99% 0.7 mph S1.1 kmh S 5.4 mph8.7 kmh 29.09 in985.1 mb 0.00 in0.0 mm 0.00 in0.0 mm 0.85 in21.6 mm
10:27 AM 50.5°F10.3°C 50.3°F10.2°C 99% 1.6 mph S2.6 kmh S 5.4 mph8.7 kmh 29.08 in984.8 mb 0.00 in0.0 mm 0.00 in0.0 mm 0.85 in21.6 mm
10:26 AM 50.5°F10.3°C 50.3°F10.2°C 99% 2.2 mph SSW3.5 kmh SSW 5.4 mph8.7 kmh 29.08 in984.8 mb 0.00 in0.0 mm 0.00 in0.0 mm 0.85 in21.6 mm
10:25 AM 50.5°F10.3°C 50.3°F10.2°C 99% 1.6 mph SW2.6 kmh SW 5.4 mph8.7 kmh 29.08 in984.8 mb 0.00 in0.0 mm 0.00 in0.0 mm 0.85 in21.6 mm
10:24 AM 50.5°F10.3°C 50.3°F10.2°C 99% 1.6 mph SW2.6 kmh SW 5.4 mph8.7 kmh 29.08 in984.8 mb 0.00 in0.0 mm 0.00 in0.0 mm 0.85 in21.6 mm
10:23 AM 50.5°F10.3°C 50.3°F10.2°C 99% 0.7 mph SW1.1 kmh SW 5.4 mph8.7 kmh 29.08 in984.8 mb 0.00 in0.0 mm 0.00 in0.0 mm 0.85 in21.6 mm
10:22 AM 50.5°F10.3°C 50.3°F10.2°C 99% 0.7 mph S1.1 kmh S 6.9 mph11.1 kmh 29.09 in985.1 mb 0.00 in0.0 mm 0.00 in0.0 mm 0.85 in21.6 mm
10:21 AM 50.5°F10.3°C 50.3°F10.2°C 99% 1.6 mph SSE2.6 kmh SSE 6.9 mph11.1 kmh 29.08 in984.8 mb 0.00 in0.0 mm 0.00 in0.0 mm 0.85 in21.6 mm
10:20 AM 50.5°F10.3°C 50.3°F10.2°C 99% 3.1 mph S5.0 kmh S 6.9 mph11.1 kmh 29.09 in985.1 mb 0.00 in0.0 mm 0.00 in0.0 mm 0.85 in21.6 mm
10:19 AM 50.5°F10.3°C 50.3°F10.2°C 99% 1.6 mph S2.6 kmh S 6.9 mph11.1 kmh 29.08 in984.8 mb 0.00 in0.0 mm 0.00 in0.0 mm 0.85 in21.6 mm
10:18 AM 50.5°F10.3°C 50.3°F10.2°C 99% Calm Calm 6.9 mph11.1 kmh 29.08 in984.8 mb 0.00 in0.0 mm 0.00 in0.0 mm 0.85 in21.6 mm
10:17 AM 50.5°F10.3°C 50.3°F10.2°C 99% 1.6 mph S2.6 kmh S 6.9 mph11.1 kmh 29.07 in984.4 mb 0.00 in0.0 mm 0.00 in0.0 mm 0.85 in21.6 mm
10:16 AM 50.5°F10.3°C 50.3°F10.2°C 99% 0.7 mph S1.1 kmh S 6.9 mph11.1 kmh 29.07 in984.4 mb 0.00 in0.0 mm 0.00 in0.0 mm 0.85 in21.6 mm
10:15 AM 50.4°F10.2°C 50.1°F10.1°C 99% 1.6 mph SSW2.6 kmh SSW 6.9 mph11.1 kmh 29.08 in984.8 mb 0.00 in0.0 mm 0.00 in0.0 mm 0.85 in21.6 mm
10:14 AM 50.4°F10.2°C 50.1°F10.1°C 99% 1.6 mph SW2.6 kmh SW 6.9 mph11.1 kmh 29.08 in984.8 mb 0.00 in0.0 mm 0.00 in0.0 mm 0.85 in21.6 mm
10:13 AM 50.5°F10.3°C 50.3°F10.2°C 99% 2.2 mph WNW3.5 kmh WNW 6.9 mph11.1 kmh 29.08 in984.8 mb 0.00 in0.0 mm 0.00 in0.0 mm 0.85 in21.6 mm
10:12 AM 50.4°F10.2°C 50.1°F10.1°C 99% 3.1 mph NW5.0 kmh NW 6.9 mph11.1 kmh 29.07 in984.4 mb 0.00 in0.0 mm 0.00 in0.0 mm 0.85 in21.6 mm
10:11 AM 50.4°F10.2°C 50.1°F10.1°C 99% 3.1 mph NW5.0 kmh NW 6.9 mph11.1 kmh 29.07 in984.4 mb 0.00 in0.0 mm 0.00 in0.0 mm 0.85 in21.6 mm
10:10 AM 50.5°F10.3°C 50.3°F10.2°C 99% 1.6 mph NW2.6 kmh NW 5.4 mph8.7 kmh 29.08 in984.8 mb 0.00 in0.0 mm 0.00 in0.0 mm 0.85 in21.6 mm
10:09 AM 50.4°F10.2°C 50.1°F10.1°C 99% 2.2 mph NNW3.5 kmh NNW 5.4 mph8.7 kmh 29.07 in984.4 mb 0.00 in0.0 mm 0.00 in0.0 mm 0.85 in21.6 mm
10:08 AM 50.4°F10.2°C 50.1°F10.1°C 99% 2.2 mph NNW3.5 kmh NNW 6.0 mph9.7 kmh 29.07 in984.4 mb 0.00 in0.0 mm 0.00 in0.0 mm 0.85 in21.6 mm
10:07 AM 50.4°F10.2°C 50.1°F10.1°C 99% 1.6 mph NW2.6 kmh NW 6.0 mph9.7 kmh 29.07 in984.4 mb 0.00 in0.0 mm 0.00 in0.0 mm 0.85 in21.6 mm
10:06 AM 50.4°F10.2°C 50.1°F10.1°C 99% 1.6 mph NW2.6 kmh NW 6.0 mph9.7 kmh 29.07 in984.4 mb 0.00 in0.0 mm 0.00 in0.0 mm 0.85 in21.6 mm
10:05 AM 50.4°F10.2°C 50.1°F10.1°C 99% 1.6 mph NW2.6 kmh NW 6.0 mph9.7 kmh 29.07 in984.4 mb 0.00 in0.0 mm 0.00 in0.0 mm 0.85 in21.6 mm
10:04 AM 50.4°F10.2°C 50.1°F10.1°C 99% 1.6 mph NW2.6 kmh NW 6.0 mph9.7 kmh 29.07 in984.4 mb 0.00 in0.0 mm 0.00 in0.0 mm 0.85 in21.6 mm
10:03 AM 50.4°F10.2°C 50.1°F10.1°C 99% 1.6 mph WNW2.6 kmh WNW 6.0 mph9.7 kmh 29.07 in984.4 mb 0.00 in0.0 mm 0.00 in0.0 mm 0.85 in21.6 mm
10:02 AM 50.4°F10.2°C 50.1°F10.1°C 99% 1.6 mph NW2.6 kmh NW 6.0 mph9.7 kmh 29.07 in984.4 mb 0.00 in0.0 mm 0.00 in0.0 mm 0.85 in21.6 mm
10:01 AM 50.4°F10.2°C 50.1°F10.1°C 99% 1.6 mph WNW2.6 kmh WNW 6.0 mph9.7 kmh 29.07 in984.4 mb 0.00 in0.0 mm 0.00 in0.0 mm 0.85 in21.6 mm
10:00 AM 50.4°F10.2°C 50.1°F10.1°C 99% 1.6 mph SW2.6 kmh SW 6.0 mph9.7 kmh 29.07 in984.4 mb 0.00 in0.0 mm 0.00 in0.0 mm 0.85 in21.6 mm
09:59 AM 50.5°F10.3°C 50.3°F10.2°C 99% 2.2 mph SW3.5 kmh SW 6.0 mph9.7 kmh 29.07 in984.4 mb 0.00 in0.0 mm 0.00 in0.0 mm 0.85 in21.6 mm
09:58 AM 50.5°F10.3°C 50.3°F10.2°C 99% 2.2 mph W3.5 kmh W 6.0 mph9.7 kmh 29.07 in984.4 mb 0.00 in0.0 mm 0.00 in0.0 mm 0.85 in21.6 mm
09:57 AM 50.5°F10.3°C 50.3°F10.2°C 99% 1.6 mph W2.6 kmh W 6.0 mph9.7 kmh 29.07 in984.4 mb 0.00 in0.0 mm 0.00 in0.0 mm 0.85 in21.6 mm
09:56 AM 50.5°F10.3°C 50.3°F10.2°C 99% Calm Calm 6.0 mph9.7 kmh 29.07 in984.4 mb 0.00 in0.0 mm 0.00 in0.0 mm 0.85 in21.6 mm
09:55 AM 50.4°F10.2°C 50.1°F10.1°C 99% Calm Calm 6.0 mph9.7 kmh 29.07 in984.4 mb 0.00 in0.0 mm 0.00 in0.0 mm 0.85 in21.6 mm
09:54 AM 50.5°F10.3°C 50.3°F10.2°C 99% 0.7 mph NNW1.1 kmh NNW 6.0 mph9.7 kmh 29.07 in984.4 mb 0.00 in0.0 mm 0.00 in0.0 mm 0.85 in21.6 mm
09:53 AM 50.5°F10.3°C 50.3°F10.2°C 99% 2.2 mph N3.5 kmh N 6.0 mph9.7 kmh 29.07 in984.4 mb 0.00 in0.0 mm 0.00 in0.0 mm 0.85 in21.6 mm
09:52 AM 50.4°F10.2°C 50.1°F10.1°C 99% 1.6 mph SSW2.6 kmh SSW 5.4 mph8.7 kmh 29.07 in984.4 mb 0.00 in0.0 mm 0.00 in0.0 mm 0.85 in21.6 mm
09:51 AM 50.5°F10.3°C 50.3°F10.2°C 99% 1.6 mph SSW2.6 kmh SSW 5.4 mph8.7 kmh 29.07 in984.4 mb 0.00 in0.0 mm 0.00 in0.0 mm 0.85 in21.6 mm
09:50 AM 50.4°F10.2°C 50.1°F10.1°C 99% 2.2 mph S3.5 kmh S 5.4 mph8.7 kmh 29.07 in984.4 mb 0.00 in0.0 mm 0.00 in0.0 mm 0.85 in21.6 mm
09:49 AM 50.5°F10.3°C 50.3°F10.2°C 99% 2.2 mph SW3.5 kmh SW 5.4 mph8.7 kmh 29.06 in984.1 mb 0.00 in0.0 mm 0.00 in0.0 mm 0.85 in21.6 mm
09:48 AM 50.4°F10.2°C 50.1°F10.1°C 99% 0.7 mph SW1.1 kmh SW 4.5 mph7.2 kmh 29.07 in984.4 mb 0.00 in0.0 mm 0.00 in0.0 mm 0.85 in21.6 mm
09:47 AM 50.5°F10.3°C 50.3°F10.2°C 99% Calm Calm 7.6 mph12.2 kmh 29.06 in984.1 mb 0.00 in0.0 mm 0.00 in0.0 mm 0.85 in21.6 mm
09:46 AM 50.4°F10.2°C 50.1°F10.1°C 99% Calm Calm 7.6 mph12.2 kmh 29.07 in984.4 mb 0.00 in0.0 mm 0.00 in0.0 mm 0.85 in21.6 mm
09:45 AM 50.5°F10.3°C 50.3°F10.2°C 99% 0.7 mph SW1.1 kmh SW 7.6 mph12.2 kmh 29.07 in984.4 mb 0.00 in0.0 mm 0.00 in0.0 mm 0.85 in21.6 mm
09:44 AM 50.4°F10.2°C 50.1°F10.1°C 99% 0.7 mph S1.1 kmh S 7.6 mph12.2 kmh 29.06 in984.1 mb 0.00 in0.0 mm 0.00 in0.0 mm 0.85 in21.6 mm
09:43 AM 50.4°F10.2°C 50.1°F10.1°C 99% Calm Calm 7.6 mph12.2 kmh 29.06 in984.1 mb 0.00 in0.0 mm 0.00 in0.0 mm 0.85 in21.6 mm
09:42 AM 50.4°F10.2°C 50.1°F10.1°C 99% Calm Calm 7.6 mph12.2 kmh 29.06 in984.1 mb 0.00 in0.0 mm 0.00 in0.0 mm 0.85 in21.6 mm
09:41 AM 50.4°F10.2°C 50.1°F10.1°C 99% 1.6 mph S2.6 kmh S 7.6 mph12.2 kmh 29.07 in984.4 mb 0.00 in0.0 mm 0.00 in0.0 mm 0.85 in21.6 mm
09:40 AM 50.4°F10.2°C 50.1°F10.1°C 99% 1.6 mph S2.6 kmh S 7.6 mph12.2 kmh 29.06 in984.1 mb 0.00 in0.0 mm 0.00 in0.0 mm 0.85 in21.6 mm
09:39 AM 50.4°F10.2°C 50.1°F10.1°C 99% 1.6 mph S2.6 kmh S 7.6 mph12.2 kmh 29.07 in984.4 mb 0.00 in0.0 mm 0.00 in0.0 mm 0.85 in21.6 mm
09:38 AM 50.4°F10.2°C 50.1°F10.1°C 99% 1.6 mph SE2.6 kmh SE 7.6 mph12.2 kmh 29.07 in984.4 mb 0.00 in0.0 mm 0.00 in0.0 mm 0.85 in21.6 mm
09:37 AM 50.4°F10.2°C 50.1°F10.1°C 99% 0.7 mph SE1.1 kmh SE 6.9 mph11.1 kmh 29.07 in984.4 mb 0.00 in0.0 mm 0.00 in0.0 mm 0.85 in21.6 mm
09:36 AM 50.4°F10.2°C 50.1°F10.1°C 99% Calm Calm 6.9 mph11.1 kmh 29.06 in984.1 mb 0.00 in0.0 mm 0.00 in0.0 mm 0.85 in21.6 mm
09:35 AM 50.4°F10.2°C 50.1°F10.1°C 99% 1.6 mph SE2.6 kmh SE 6.9 mph11.1 kmh 29.07 in984.4 mb 0.00 in0.0 mm 0.00 in0.0 mm 0.85 in21.6 mm
09:34 AM 50.4°F10.2°C 50.1°F10.1°C 99% 3.8 mph SE6.1 kmh SE 6.9 mph11.1 kmh 29.06 in984.1 mb 0.00 in0.0 mm 0.00 in0.0 mm 0.85 in21.6 mm
09:33 AM 50.4°F10.2°C 50.1°F10.1°C 99% 0.7 mph SE1.1 kmh SE 6.9 mph11.1 kmh 29.06 in984.1 mb 0.00 in0.0 mm 0.00 in0.0 mm 0.85 in21.6 mm
09:32 AM 50.4°F10.2°C 50.1°F10.1°C 99% 1.6 mph SE2.6 kmh SE 6.9 mph11.1 kmh 29.06 in984.1 mb 0.00 in0.0 mm 0.00 in0.0 mm 0.85 in21.6 mm
09:31 AM 50.5°F10.3°C 50.3°F10.2°C 99% 3.1 mph SSE5.0 kmh SSE 6.9 mph11.1 kmh 29.07 in984.4 mb 0.00 in0.0 mm 0.00 in0.0 mm 0.85 in21.6 mm
09:30 AM 50.5°F10.3°C 50.3°F10.2°C 99% 1.6 mph SE2.6 kmh SE 6.9 mph11.1 kmh 29.06 in984.1 mb 0.00 in0.0 mm 0.00 in0.0 mm 0.85 in21.6 mm
09:29 AM 50.4°F10.2°C 50.1°F10.1°C 99% 3.8 mph SE6.1 kmh SE 6.9 mph11.1 kmh 29.06 in984.1 mb 0.00 in0.0 mm 0.00 in0.0 mm 0.85 in21.6 mm
09:28 AM 50.4°F10.2°C 50.1°F10.1°C 99% 3.8 mph SSE6.1 kmh SSE 6.0 mph9.7 kmh 29.06 in984.1 mb 0.00 in0.0 mm 0.00 in0.0 mm 0.85 in21.6 mm
09:27 AM 50.4°F10.2°C 50.1°F10.1°C 99% 2.2 mph SSE3.5 kmh SSE 5.4 mph8.7 kmh 29.06 in984.1 mb 0.00 in0.0 mm 0.00 in0.0 mm 0.85 in21.6 mm
09:26 AM 50.4°F10.2°C 50.1°F10.1°C 99% 2.2 mph SE3.5 kmh SE 5.4 mph8.7 kmh 29.06 in984.1 mb 0.00 in0.0 mm 0.00 in0.0 mm 0.85 in21.6 mm
09:25 AM 50.5°F10.3°C 50.3°F10.2°C 99% 1.6 mph SE2.6 kmh SE 5.4 mph8.7 kmh 29.06 in984.1 mb 0.00 in0.0 mm 0.00 in0.0 mm 0.85 in21.6 mm
09:24 AM 50.4°F10.2°C 50.1°F10.1°C 99% 2.2 mph SE3.5 kmh SE 5.4 mph8.7 kmh 29.06 in984.1 mb 0.00 in0.0 mm 0.00 in0.0 mm 0.85 in21.6 mm
09:23 AM 50.5°F10.3°C 50.3°F10.2°C 99% 1.6 mph SSE2.6 kmh SSE 5.4 mph8.7 kmh 29.06 in984.1 mb 0.00 in0.0 mm 0.00 in0.0 mm 0.85 in21.6 mm
09:22 AM 50.5°F10.3°C 50.3°F10.2°C 99% 1.6 mph SSE2.6 kmh SSE 5.4 mph8.7 kmh 29.06 in984.1 mb 0.00 in0.0 mm 0.00 in0.0 mm 0.85 in21.6 mm
09:21 AM 50.5°F10.3°C 50.3°F10.2°C 99% 2.2 mph SE3.5 kmh SE 5.4 mph8.7 kmh 29.06 in984.1 mb 0.00 in0.0 mm 0.00 in0.0 mm 0.85 in21.6 mm
09:20 AM 50.5°F10.3°C 50.3°F10.2°C 99% 2.2 mph SE3.5 kmh SE 5.4 mph8.7 kmh 29.06 in984.1 mb 0.00 in0.0 mm 0.00 in0.0 mm 0.85 in21.6 mm
09:19 AM 50.5°F10.3°C 50.3°F10.2°C 99% Calm Calm 5.4 mph8.7 kmh 29.06 in984.1 mb 0.00 in0.0 mm 0.00 in0.0 mm 0.85 in21.6 mm
09:18 AM 50.5°F10.3°C 50.3°F10.2°C 99% Calm Calm 5.4 mph8.7 kmh 29.06 in984.1 mb 0.00 in0.0 mm 0.00 in0.0 mm 0.85 in21.6 mm
09:17 AM 50.5°F10.3°C 50.3°F10.2°C 99% 2.2 mph SE3.5 kmh SE 5.4 mph8.7 kmh 29.05 in983.7 mb 0.00 in0.0 mm 0.00 in0.0 mm 0.85 in21.6 mm
09:16 AM 50.4°F10.2°C 50.1°F10.1°C 99% Calm Calm 4.5 mph7.2 kmh 29.06 in984.1 mb 0.00 in0.0 mm 0.00 in0.0 mm 0.85 in21.6 mm
09:15 AM 50.4°F10.2°C 50.1°F10.1°C 99% 0.7 mph SE1.1 kmh SE 4.5 mph7.2 kmh 29.05 in983.7 mb 0.00 in0.0 mm 0.00 in0.0 mm 0.85 in21.6 mm
09:14 AM 50.4°F10.2°C 50.1°F10.1°C 99% 0.7 mph SE1.1 kmh SE 4.5 mph7.2 kmh 29.05 in983.7 mb 0.00 in0.0 mm 0.00 in0.0 mm 0.85 in21.6 mm
09:13 AM 50.4°F10.2°C 50.1°F10.1°C 99% 2.2 mph ESE3.5 kmh ESE 4.5 mph7.2 kmh 29.05 in983.7 mb 0.00 in0.0 mm 0.00 in0.0 mm 0.85 in21.6 mm
09:12 AM 50.4°F10.2°C 50.1°F10.1°C 99% 2.2 mph E3.5 kmh E 4.5 mph7.2 kmh 29.05 in983.7 mb 0.00 in0.0 mm 0.00 in0.0 mm 0.85 in21.6 mm
09:11 AM 50.4°F10.2°C 50.1°F10.1°C 99% 2.2 mph E3.5 kmh E 4.5 mph7.2 kmh 29.05 in983.7 mb 0.00 in0.0 mm 0.00 in0.0 mm 0.85 in21.6 mm
09:10 AM 50.2°F10.1°C 49.9°F9.9°C 99% 0.7 mph E1.1 kmh E 4.5 mph7.2 kmh 29.06 in984.1 mb 0.00 in0.0 mm 0.00 in0.0 mm 0.85 in21.6 mm
09:09 AM 50.2°F10.1°C 49.9°F9.9°C 99% 1.6 mph E2.6 kmh E 4.5 mph7.2 kmh 29.05 in983.7 mb 0.00 in0.0 mm 0.00 in0.0 mm 0.85 in21.6 mm
09:08 AM 50.2°F10.1°C 49.9°F9.9°C 99% 2.2 mph E3.5 kmh E 4.5 mph7.2 kmh 29.05 in983.7 mb 0.00 in0.0 mm 0.00 in0.0 mm 0.85 in21.6 mm
09:07 AM 50.0°F10.0°C 49.7°F9.8°C 99% 1.6 mph E2.6 kmh E 4.5 mph7.2 kmh 29.05 in983.7 mb 0.00 in0.0 mm 0.00 in0.0 mm 0.85 in21.6 mm
09:06 AM 50.0°F10.0°C 49.7°F9.8°C 99% 1.6 mph ESE2.6 kmh ESE 4.5 mph7.2 kmh 29.05 in983.7 mb 0.00 in0.0 mm 0.00 in0.0 mm 0.85 in21.6 mm
09:05 AM 50.0°F10.0°C 49.7°F9.8°C 99% 1.6 mph ESE2.6 kmh ESE 4.5 mph7.2 kmh 29.05 in983.7 mb 0.00 in0.0 mm 0.00 in0.0 mm 0.85 in21.6 mm
09:04 AM 50.0°F10.0°C 49.7°F9.8°C 99% 1.6 mph SE2.6 kmh SE 4.5 mph7.2 kmh 29.05 in983.7 mb 0.00 in0.0 mm 0.00 in0.0 mm 0.85 in21.6 mm
09:03 AM 50.0°F10.0°C 49.7°F9.8°C 99% 1.6 mph SE2.6 kmh SE 4.5 mph7.2 kmh 29.05 in983.7 mb 0.00 in0.0 mm 0.00 in0.0 mm 0.85 in21.6 mm
09:02 AM 50.0°F10.0°C 49.7°F9.8°C 99% 1.6 mph SE2.6 kmh SE 5.4 mph8.7 kmh 29.05 in983.7 mb 0.00 in0.0 mm 0.00 in0.0 mm 0.85 in21.6 mm
09:01 AM 50.0°F10.0°C 49.7°F9.8°C 99% 1.6 mph SSE2.6 kmh SSE 5.4 mph8.7 kmh 29.05 in983.7 mb 0.00 in0.0 mm 0.00 in0.0 mm 0.85 in21.6 mm
09:00 AM 50.0°F10.0°C 49.7°F9.8°C 99% 1.6 mph S2.6 kmh S 5.4 mph8.7 kmh 29.05 in983.7 mb 0.00 in0.0 mm 0.00 in0.0 mm 0.85 in21.6 mm
08:59 AM 50.0°F10.0°C 49.7°F9.8°C 99% 1.6 mph S2.6 kmh S 5.4 mph8.7 kmh 29.05 in983.7 mb 0.00 in0.0 mm 0.00 in0.0 mm 0.85 in21.6 mm
08:58 AM 50.0°F10.0°C 49.7°F9.8°C 99% 1.6 mph SSE2.6 kmh SSE 5.4 mph8.7 kmh 29.05 in983.7 mb 0.00 in0.0 mm 0.00 in0.0 mm 0.85 in21.6 mm
08:57 AM 50.0°F10.0°C 49.7°F9.8°C 99% 0.7 mph SE1.1 kmh SE 5.4 mph8.7 kmh 29.05 in983.7 mb 0.00 in0.0 mm 0.00 in0.0 mm 0.85 in21.6 mm
08:56 AM 50.0°F10.0°C 49.7°F9.8°C 99% 0.7 mph SE1.1 kmh SE 5.4 mph8.7 kmh 29.05 in983.7 mb 0.00 in0.0 mm 0.00 in0.0 mm 0.85 in21.6 mm
08:55 AM 50.0°F10.0°C 49.7°F9.8°C 99% 1.6 mph SE2.6 kmh SE 5.4 mph8.7 kmh 29.05 in983.7 mb 0.00 in0.0 mm 0.00 in0.0 mm 0.85 in21.6 mm
08:54 AM 50.0°F10.0°C 49.7°F9.8°C 99% 0.7 mph SE1.1 kmh SE 5.4 mph8.7 kmh 29.05 in983.7 mb 0.00 in0.0 mm 0.00 in0.0 mm 0.85 in21.6 mm
08:53 AM 50.0°F10.0°C 49.7°F9.8°C 99% 1.6 mph SE2.6 kmh SE 6.0 mph9.7 kmh 29.05 in983.7 mb 0.00 in0.0 mm 0.00 in0.0 mm 0.85 in21.6 mm
08:52 AM 50.0°F10.0°C 49.7°F9.8°C 99% 3.1 mph ESE5.0 kmh ESE 6.0 mph9.7 kmh 29.05 in983.7 mb 0.00 in0.0 mm 0.00 in0.0 mm 0.85 in21.6 mm
08:51 AM 50.0°F10.0°C 49.7°F9.8°C 99% 1.6 mph SE2.6 kmh SE 6.0 mph9.7 kmh 29.05 in983.7 mb 0.00 in0.0 mm 0.00 in0.0 mm 0.85 in21.6 mm
08:50 AM 50.0°F10.0°C 49.7°F9.8°C 99% 2.2 mph SE3.5 kmh SE 6.9 mph11.1 kmh 29.05 in983.7 mb 0.00 in0.0 mm 0.00 in0.0 mm 0.85 in21.6 mm
08:49 AM 50.0°F10.0°C 49.7°F9.8°C 99% 0.7 mph SE1.1 kmh SE 6.9 mph11.1 kmh 29.05 in983.7 mb 0.00 in0.0 mm 0.00 in0.0 mm 0.85 in21.6 mm
08:48 AM 50.0°F10.0°C 49.7°F9.8°C 99% 0.7 mph SE1.1 kmh SE 6.9 mph11.1 kmh 29.05 in983.7 mb 0.00 in0.0 mm 0.00 in0.0 mm 0.85 in21.6 mm
08:47 AM 50.0°F10.0°C 49.7°F9.8°C 99% 0.7 mph SE1.1 kmh SE 6.9 mph11.1 kmh 29.05 in983.7 mb 0.00 in0.0 mm 0.00 in0.0 mm 0.85 in21.6 mm
08:46 AM 50.0°F10.0°C 49.7°F9.8°C 99% 2.2 mph SE3.5 kmh SE 6.9 mph11.1 kmh 29.05 in983.7 mb 0.00 in0.0 mm 0.00 in0.0 mm 0.85 in21.6 mm
08:45 AM 50.0°F10.0°C 49.7°F9.8°C 99% 2.2 mph ESE3.5 kmh ESE 6.9 mph11.1 kmh 29.05 in983.7 mb 0.00 in0.0 mm 0.00 in0.0 mm 0.85 in21.6 mm
08:44 AM 50.0°F10.0°C 49.7°F9.8°C 99% 1.6 mph SE2.6 kmh SE 6.9 mph11.1 kmh 29.05 in983.7 mb 0.00 in0.0 mm 0.00 in0.0 mm 0.85 in21.6 mm
08:43 AM 49.8°F9.9°C 49.6°F9.8°C 99% 2.2 mph ESE3.5 kmh ESE 6.9 mph11.1 kmh 29.05 in983.7 mb 0.00 in0.0 mm 0.00 in0.0 mm 0.85 in21.6 mm
08:42 AM 49.8°F9.9°C 49.6°F9.8°C 99% 0.7 mph ESE1.1 kmh ESE 6.9 mph11.1 kmh 29.05 in983.7 mb 0.00 in0.0 mm 0.00 in0.0 mm 0.85 in21.6 mm
08:41 AM 49.8°F9.9°C 49.6°F9.8°C 99% 0.7 mph ESE1.1 kmh ESE 6.9 mph11.1 kmh 29.05 in983.7 mb 0.00 in0.0 mm 0.00 in0.0 mm 0.85 in21.6 mm
08:40 AM 49.8°F9.9°C 49.6°F9.8°C 99% 3.1 mph E5.0 kmh E 6.9 mph11.1 kmh 29.05 in983.7 mb 0.00 in0.0 mm 0.00 in0.0 mm 0.85 in21.6 mm
08:39 AM 49.6°F9.8°C 49.4°F9.7°C 99% 2.2 mph E3.5 kmh E 5.4 mph8.7 kmh 29.05 in983.7 mb 0.00 in0.0 mm 0.00 in0.0 mm 0.85 in21.6 mm
08:38 AM 49.5°F9.7°C 49.2°F9.6°C 99% 1.6 mph E2.6 kmh E 3.8 mph6.1 kmh 29.05 in983.7 mb 0.00 in0.0 mm 0.00 in0.0 mm 0.85 in21.6 mm
08:37 AM 49.5°F9.7°C 49.2°F9.6°C 99% 1.6 mph E2.6 kmh E 3.8 mph6.1 kmh 29.04 in983.4 mb 0.00 in0.0 mm 0.00 in0.0 mm 0.85 in21.6 mm
08:36 AM 49.5°F9.7°C 49.2°F9.6°C 99% 1.6 mph E2.6 kmh E 3.8 mph6.1 kmh 29.05 in983.7 mb 0.00 in0.0 mm 0.00 in0.0 mm 0.85 in21.6 mm
08:35 AM 49.5°F9.7°C 49.2°F9.6°C 99% 1.6 mph ESE2.6 kmh ESE 3.8 mph6.1 kmh 29.05 in983.7 mb 0.00 in0.0 mm 0.00 in0.0 mm 0.85 in21.6 mm
08:34 AM 49.5°F9.7°C 49.2°F9.6°C 99% 1.6 mph ESE2.6 kmh ESE 3.8 mph6.1 kmh 29.05 in983.7 mb 0.00 in0.0 mm 0.00 in0.0 mm 0.85 in21.6 mm
08:33 AM 49.5°F9.7°C 49.2°F9.6°C 99% 1.6 mph SE2.6 kmh SE 3.8 mph6.1 kmh 29.05 in983.7 mb 0.00 in0.0 mm 0.00 in0.0 mm 0.85 in21.6 mm
08:32 AM 49.5°F9.7°C 49.2°F9.6°C 99% 1.6 mph SE2.6 kmh SE 4.5 mph7.2 kmh 29.05 in983.7 mb 0.00 in0.0 mm 0.00 in0.0 mm 0.85 in21.6 mm
08:31 AM 49.5°F9.7°C 49.2°F9.6°C 99% 1.6 mph SSE2.6 kmh SSE 4.5 mph7.2 kmh 29.05 in983.7 mb 0.00 in0.0 mm 0.00 in0.0 mm 0.85 in21.6 mm
08:30 AM 49.5°F9.7°C 49.2°F9.6°C 99% 1.6 mph S2.6 kmh S 4.5 mph7.2 kmh 29.04 in983.4 mb 0.00 in0.0 mm 0.00 in0.0 mm 0.85 in21.6 mm
08:29 AM 49.6°F9.8°C 49.4°F9.7°C 99% 1.6 mph S2.6 kmh S 4.5 mph7.2 kmh 29.05 in983.7 mb 0.00 in0.0 mm 0.00 in0.0 mm 0.85 in21.6 mm
08:28 AM 49.5°F9.7°C 49.2°F9.6°C 99% 0.7 mph S1.1 kmh S 4.5 mph7.2 kmh 29.05 in983.7 mb 0.00 in0.0 mm 0.00 in0.0 mm 0.85 in21.6 mm
08:27 AM 49.5°F9.7°C 49.2°F9.6°C 99% Calm Calm 4.5 mph7.2 kmh 29.05 in983.7 mb 0.00 in0.0 mm 0.00 in0.0 mm 0.85 in21.6 mm
08:26 AM 49.5°F9.7°C 49.2°F9.6°C 99% Calm Calm 4.5 mph7.2 kmh 29.04 in983.4 mb 0.00 in0.0 mm 0.00 in0.0 mm 0.85 in21.6 mm
08:25 AM 49.3°F9.6°C 49.0°F9.4°C 99% Calm Calm 4.5 mph7.2 kmh 29.05 in983.7 mb 0.00 in0.0 mm 0.00 in0.0 mm 0.85 in21.6 mm
08:24 AM 49.5°F9.7°C 49.2°F9.6°C 99% Calm Calm 4.5 mph7.2 kmh 29.05 in983.7 mb 0.00 in0.0 mm 0.00 in0.0 mm 0.85 in21.6 mm
08:23 AM 49.3°F9.6°C 49.0°F9.4°C 99% 1.6 mph SSE2.6 kmh SSE 4.5 mph7.2 kmh 29.05 in983.7 mb 0.00 in0.0 mm 0.00 in0.0 mm 0.85 in21.6 mm
08:22 AM 49.5°F9.7°C 49.2°F9.6°C 99% 2.2 mph SSE3.5 kmh SSE 4.5 mph7.2 kmh 29.05 in983.7 mb 0.00 in0.0 mm 0.00 in0.0 mm 0.85 in21.6 mm
08:21 AM 49.5°F9.7°C 49.2°F9.6°C 99% 1.6 mph SSE2.6 kmh SSE 4.5 mph7.2 kmh 29.05 in983.7 mb 0.00 in0.0 mm 0.00 in0.0 mm 0.85 in21.6 mm
08:20 AM 49.3°F9.6°C 49.0°F9.4°C 99% 0.7 mph SSE1.1 kmh SSE 4.5 mph7.2 kmh 29.05 in983.7 mb 0.01 in0.3 mm 0.00 in0.0 mm 0.85 in21.6 mm
08:19 AM 49.3°F9.6°C 49.0°F9.4°C 99% 1.6 mph SSE2.6 kmh SSE 4.5 mph7.2 kmh 29.05 in983.7 mb 0.01 in0.3 mm 0.00 in0.0 mm 0.85 in21.6 mm
08:18 AM 49.3°F9.6°C 49.0°F9.4°C 99% 0.7 mph SE1.1 kmh SE 4.5 mph7.2 kmh 29.05 in983.7 mb 0.01 in0.3 mm 0.00 in0.0 mm 0.85 in21.6 mm
08:17 AM 49.3°F9.6°C 49.0°F9.4°C 99% 0.7 mph SE1.1 kmh SE 4.5 mph7.2 kmh 29.05 in983.7 mb 0.01 in0.3 mm 0.00 in0.0 mm 0.85 in21.6 mm
08:16 AM 49.3°F9.6°C 49.0°F9.4°C 99% 0.7 mph SE1.1 kmh SE 4.5 mph7.2 kmh 29.05 in983.7 mb 0.01 in0.3 mm 0.00 in0.0 mm 0.85 in21.6 mm
08:15 AM 49.3°F9.6°C 49.0°F9.4°C 99% 0.7 mph SE1.1 kmh SE 4.5 mph7.2 kmh 29.05 in983.7 mb 0.01 in0.3 mm 0.00 in0.0 mm 0.85 in21.6 mm
08:14 AM 49.1°F9.5°C 48.8°F9.3°C 99% 1.6 mph SE2.6 kmh SE 4.5 mph7.2 kmh 29.05 in983.7 mb 0.01 in0.3 mm 0.00 in0.0 mm 0.85 in21.6 mm
08:13 AM 49.3°F9.6°C 49.0°F9.4°C 99% 0.7 mph SE1.1 kmh SE 4.5 mph7.2 kmh 29.05 in983.7 mb 0.01 in0.3 mm 0.00 in0.0 mm 0.85 in21.6 mm
08:12 AM 49.3°F9.6°C 49.0°F9.4°C 99% 0.7 mph SE1.1 kmh SE 4.5 mph7.2 kmh 29.05 in983.7 mb 0.01 in0.3 mm 0.00 in0.0 mm 0.85 in21.6 mm
08:11 AM 49.3°F9.6°C 49.0°F9.4°C 99% 1.6 mph SE2.6 kmh SE 4.5 mph7.2 kmh 29.05 in983.7 mb 0.01 in0.3 mm 0.00 in0.0 mm 0.85 in21.6 mm
08:10 AM 49.1°F9.5°C 48.8°F9.3°C 99% 0.7 mph SE1.1 kmh SE 4.5 mph7.2 kmh 29.05 in983.7 mb 0.01 in0.3 mm 0.00 in0.0 mm 0.85 in21.6 mm
08:09 AM 49.3°F9.6°C 49.0°F9.4°C 99% 1.6 mph SE2.6 kmh SE 4.5 mph7.2 kmh 29.05 in983.7 mb 0.01 in0.3 mm 0.00 in0.0 mm 0.85 in21.6 mm
08:08 AM 49.3°F9.6°C 49.0°F9.4°C 99% 0.7 mph SE1.1 kmh SE 4.5 mph7.2 kmh 29.05 in983.7 mb 0.01 in0.3 mm 0.00 in0.0 mm 0.85 in21.6 mm
08:07 AM 49.1°F9.5°C 48.8°F9.3°C 99% 2.2 mph SE3.5 kmh SE 4.5 mph7.2 kmh 29.04 in983.4 mb 0.01 in0.3 mm 0.00 in0.0 mm 0.85 in21.6 mm
08:06 AM 49.1°F9.5°C 48.8°F9.3°C 99% 1.6 mph SE2.6 kmh SE 3.8 mph6.1 kmh 29.05 in983.7 mb 0.01 in0.3 mm 0.00 in0.0 mm 0.85 in21.6 mm
08:05 AM 49.1°F9.5°C 48.8°F9.3°C 99% 1.6 mph SE2.6 kmh SE 3.8 mph6.1 kmh 29.05 in983.7 mb 0.01 in0.3 mm 0.00 in0.0 mm 0.85 in21.6 mm
08:04 AM 49.1°F9.5°C 48.8°F9.3°C 99% 1.6 mph SE2.6 kmh SE 3.8 mph6.1 kmh 29.05 in983.7 mb 0.02 in0.5 mm 0.00 in0.0 mm 0.85 in21.6 mm
08:03 AM 49.1°F9.5°C 48.8°F9.3°C 99% 1.6 mph SE2.6 kmh SE 3.8 mph6.1 kmh 29.05 in983.7 mb 0.02 in0.5 mm 0.00 in0.0 mm 0.85 in21.6 mm
08:02 AM 49.1°F9.5°C 48.8°F9.3°C 99% Calm Calm 3.8 mph6.1 kmh 29.05 in983.7 mb 0.02 in0.5 mm 0.00 in0.0 mm 0.85 in21.6 mm
08:01 AM 49.1°F9.5°C 48.8°F9.3°C 99% Calm Calm 3.8 mph6.1 kmh 29.04 in983.4 mb 0.02 in0.5 mm 0.00 in0.0 mm 0.85 in21.6 mm
08:00 AM 49.1°F9.5°C 48.8°F9.3°C 99% Calm Calm 3.8 mph6.1 kmh 29.05 in983.7 mb 0.02 in0.5 mm 0.00 in0.0 mm 0.85 in21.6 mm
07:59 AM 48.9°F9.4°C 48.7°F9.3°C 99% Calm Calm 3.8 mph6.1 kmh 29.05 in983.7 mb 0.02 in0.5 mm 0.00 in0.0 mm 0.85 in21.6 mm
07:58 AM 48.9°F9.4°C 48.7°F9.3°C 99% 0.7 mph ESE1.1 kmh ESE 3.8 mph6.1 kmh 29.05 in983.7 mb 0.02 in0.5 mm 0.00 in0.0 mm 0.85 in21.6 mm
07:57 AM 49.1°F9.5°C 48.8°F9.3°C 99% 3.1 mph ESE5.0 kmh ESE 3.8 mph6.1 kmh 29.04 in983.4 mb 0.02 in0.5 mm 0.00 in0.0 mm 0.85 in21.6 mm
07:56 AM 48.9°F9.4°C 48.7°F9.3°C 99% 1.6 mph ESE2.6 kmh ESE 3.8 mph6.1 kmh 29.04 in983.4 mb 0.04 in1.0 mm 0.00 in0.0 mm 0.85 in21.6 mm
07:55 AM 48.9°F9.4°C 48.7°F9.3°C 99% 0.7 mph ESE1.1 kmh ESE 3.8 mph6.1 kmh 29.05 in983.7 mb 0.04 in1.0 mm 0.00 in0.0 mm 0.85 in21.6 mm
07:54 AM 48.9°F9.4°C 48.7°F9.3°C 99% 0.7 mph ESE1.1 kmh ESE 3.8 mph6.1 kmh 29.04 in983.4 mb 0.04 in1.0 mm 0.00 in0.0 mm 0.85 in21.6 mm
07:53 AM 48.9°F9.4°C 48.7°F9.3°C 99% 1.6 mph ESE2.6 kmh ESE 3.8 mph6.1 kmh 29.05 in983.7 mb 0.04 in1.0 mm 0.00 in0.0 mm 0.85 in21.6 mm
07:52 AM 48.9°F9.4°C 48.7°F9.3°C 99% 1.6 mph ESE2.6 kmh ESE 5.4 mph8.7 kmh 29.05 in983.7 mb 0.05 in1.3 mm 0.00 in0.0 mm 0.85 in21.6 mm
07:51 AM 48.9°F9.4°C 48.7°F9.3°C 99% 0.7 mph E1.1 kmh E 5.4 mph8.7 kmh 29.05 in983.7 mb 0.05 in1.3 mm 0.00 in0.0 mm 0.85 in21.6 mm
07:50 AM 48.9°F9.4°C 48.7°F9.3°C 99% 0.7 mph E1.1 kmh E 5.4 mph8.7 kmh 29.05 in983.7 mb 0.05 in1.3 mm 0.00 in0.0 mm 0.85 in21.6 mm
07:49 AM 48.9°F9.4°C 48.7°F9.3°C 99% Calm Calm 5.4 mph8.7 kmh 29.05 in983.7 mb 0.06 in1.5 mm 0.00 in0.0 mm 0.85 in21.6 mm
07:48 AM 48.9°F9.4°C 48.7°F9.3°C 99% Calm Calm 5.4 mph8.7 kmh 29.05 in983.7 mb 0.06 in1.5 mm 0.00 in0.0 mm 0.85 in21.6 mm
07:47 AM 48.9°F9.4°C 48.7°F9.3°C 99% 1.6 mph SE2.6 kmh SE 5.4 mph8.7 kmh 29.05 in983.7 mb 0.06 in1.5 mm 0.00 in0.0 mm 0.85 in21.6 mm
07:46 AM 48.9°F9.4°C 48.7°F9.3°C 99% 1.6 mph SE2.6 kmh SE 6.0 mph9.7 kmh 29.05 in983.7 mb 0.06 in1.5 mm 0.00 in0.0 mm 0.85 in21.6 mm
07:45 AM 48.9°F9.4°C 48.7°F9.3°C 99% 0.7 mph SE1.1 kmh SE 6.0 mph9.7 kmh 29.05 in983.7 mb 0.06 in1.5 mm 0.00 in0.0 mm 0.85 in21.6 mm
07:44 AM 49.1°F9.5°C 48.8°F9.3°C 99% 0.7 mph SE1.1 kmh SE 6.0 mph9.7 kmh 29.05 in983.7 mb 0.06 in1.5 mm 0.00 in0.0 mm 0.85 in21.6 mm
07:43 AM 48.9°F9.4°C 48.7°F9.3°C 99% 1.6 mph SE2.6 kmh SE 6.0 mph9.7 kmh 29.05 in983.7 mb 0.06 in1.5 mm 0.00 in0.0 mm 0.85 in21.6 mm
07:42 AM 48.9°F9.4°C 48.7°F9.3°C 99% 3.1 mph SSE5.0 kmh SSE 6.0 mph9.7 kmh 29.05 in983.7 mb 0.06 in1.5 mm 0.00 in0.0 mm 0.85 in21.6 mm
07:41 AM 48.7°F9.3°C 48.5°F9.2°C 99% Calm Calm 6.0 mph9.7 kmh 29.05 in983.7 mb 0.07 in1.8 mm 0.00 in0.0 mm 0.85 in21.6 mm
07:40 AM 48.9°F9.4°C 48.7°F9.3°C 99% Calm Calm 6.0 mph9.7 kmh 29.05 in983.7 mb 0.07 in1.8 mm 0.00 in0.0 mm 0.85 in21.6 mm
07:39 AM 48.7°F9.3°C 48.5°F9.2°C 99% Calm Calm 6.0 mph9.7 kmh 29.05 in983.7 mb 0.07 in1.8 mm 0.00 in0.0 mm 0.85 in21.6 mm
07:38 AM 48.9°F9.4°C 48.7°F9.3°C 99% Calm Calm 6.0 mph9.7 kmh 29.05 in983.7 mb 0.07 in1.8 mm 0.00 in0.0 mm 0.85 in21.6 mm
07:37 AM 48.7°F9.3°C 48.5°F9.2°C 99% 1.6 mph SE2.6 kmh SE 6.0 mph9.7 kmh 29.05 in983.7 mb 0.07 in1.8 mm 0.00 in0.0 mm 0.85 in21.6 mm
07:36 AM 48.9°F9.4°C 48.7°F9.3°C 99% 3.1 mph SE5.0 kmh SE 6.0 mph9.7 kmh 29.05 in983.7 mb 0.07 in1.8 mm 0.00 in0.0 mm 0.85 in21.6 mm
07:35 AM 48.9°F9.4°C 48.7°F9.3°C 99% Calm Calm 6.0 mph9.7 kmh 29.05 in983.7 mb 0.08 in2.0 mm 0.00 in0.0 mm 0.85 in21.6 mm
07:34 AM 48.9°F9.4°C 48.7°F9.3°C 99% Calm Calm 6.0 mph9.7 kmh 29.05 in983.7 mb 0.08 in2.0 mm 0.00 in0.0 mm 0.85 in21.6 mm
07:33 AM 48.7°F9.3°C 48.5°F9.2°C 99% 1.6 mph SE2.6 kmh SE 6.0 mph9.7 kmh 29.05 in983.7 mb 0.08 in2.0 mm 0.00 in0.0 mm 0.85 in21.6 mm
07:32 AM 48.7°F9.3°C 48.5°F9.2°C 99% 3.1 mph ESE5.0 kmh ESE 6.0 mph9.7 kmh 29.05 in983.7 mb 0.08 in2.0 mm 0.00 in0.0 mm 0.85 in21.6 mm
07:31 AM 48.7°F9.3°C 48.5°F9.2°C 99% 3.8 mph E6.1 kmh E 6.0 mph9.7 kmh 29.05 in983.7 mb 0.08 in2.0 mm 0.00 in0.0 mm 0.85 in21.6 mm
07:30 AM 48.7°F9.3°C 48.5°F9.2°C 99% 1.6 mph E2.6 kmh E 6.0 mph9.7 kmh 29.05 in983.7 mb 0.09 in2.3 mm 0.00 in0.0 mm 0.85 in21.6 mm
07:29 AM 48.7°F9.3°C 48.5°F9.2°C 99% 0.7 mph N1.1 kmh N 6.0 mph9.7 kmh 29.04 in983.4 mb 0.09 in2.3 mm 0.00 in0.0 mm 0.85 in21.6 mm
07:28 AM 48.7°F9.3°C 48.5°F9.2°C 99% 0.7 mph NW1.1 kmh NW 6.0 mph9.7 kmh 29.05 in983.7 mb 0.11 in2.8 mm 0.00 in0.0 mm 0.85 in21.6 mm
07:27 AM 48.7°F9.3°C 48.5°F9.2°C 99% 2.2 mph SSW3.5 kmh SSW 6.0 mph9.7 kmh 29.05 in983.7 mb 0.11 in2.8 mm 0.00 in0.0 mm 0.85 in21.6 mm
07:26 AM 48.7°F9.3°C 48.5°F9.2°C 99% 3.8 mph WSW6.1 kmh WSW 6.0 mph9.7 kmh 29.05 in983.7 mb 0.11 in2.8 mm 0.00 in0.0 mm 0.85 in21.6 mm
07:25 AM 48.7°F9.3°C 48.5°F9.2°C 99% 1.6 mph SW2.6 kmh SW 5.4 mph8.7 kmh 29.05 in983.7 mb 0.12 in3.0 mm 0.00 in0.0 mm 0.85 in21.6 mm
07:24 AM 48.7°F9.3°C 48.5°F9.2°C 99% 1.6 mph SE2.6 kmh SE 5.4 mph8.7 kmh 29.05 in983.7 mb 0.12 in3.0 mm 0.00 in0.0 mm 0.85 in21.6 mm
07:23 AM 48.7°F9.3°C 48.5°F9.2°C 99% 1.6 mph SE2.6 kmh SE 4.5 mph7.2 kmh 29.05 in983.7 mb 0.12 in3.0 mm 0.00 in0.0 mm 0.85 in21.6 mm
07:22 AM 48.7°F9.3°C 48.5°F9.2°C 99% 1.6 mph SE2.6 kmh SE 4.5 mph7.2 kmh 29.05 in983.7 mb 0.13 in3.3 mm 0.60 in15.2 mm 0.85 in21.6 mm
07:21 AM 48.7°F9.3°C 48.5°F9.2°C 99% Calm Calm 3.1 mph5.0 kmh 29.04 in983.4 mb 0.12 in3.0 mm 0.00 in0.0 mm 0.84 in21.3 mm
07:20 AM 48.7°F9.3°C 48.5°F9.2°C 99% 0.7 mph SE1.1 kmh SE 3.1 mph5.0 kmh 29.05 in983.7 mb 0.12 in3.0 mm 0.00 in0.0 mm 0.84 in21.3 mm
07:19 AM 48.7°F9.3°C 48.5°F9.2°C 99% 1.6 mph ESE2.6 kmh ESE 3.1 mph5.0 kmh 29.04 in983.4 mb 0.13 in3.3 mm 0.00 in0.0 mm 0.84 in21.3 mm
07:18 AM 48.7°F9.3°C 48.5°F9.2°C 99% 0.7 mph ESE1.1 kmh ESE 3.8 mph6.1 kmh 29.04 in983.4 mb 0.13 in3.3 mm 0.00 in0.0 mm 0.84 in21.3 mm
07:17 AM 48.9°F9.4°C 48.7°F9.3°C 99% 0.7 mph SE1.1 kmh SE 4.5 mph7.2 kmh 29.05 in983.7 mb 0.14 in3.6 mm 0.00 in0.0 mm 0.84 in21.3 mm
07:16 AM 48.6°F9.2°C 48.3°F9.1°C 99% 0.7 mph SE1.1 kmh SE 4.5 mph7.2 kmh 29.04 in983.4 mb 0.14 in3.6 mm 0.00 in0.0 mm 0.84 in21.3 mm
07:15 AM 48.7°F9.3°C 48.5°F9.2°C 99% 0.7 mph SE1.1 kmh SE 4.5 mph7.2 kmh 29.05 in983.7 mb 0.15 in3.8 mm 0.00 in0.0 mm 0.84 in21.3 mm
07:14 AM 48.7°F9.3°C 48.5°F9.2°C 99% 1.6 mph SE2.6 kmh SE 4.5 mph7.2 kmh 29.04 in983.4 mb 0.15 in3.8 mm 0.00 in0.0 mm 0.84 in21.3 mm
07:13 AM 48.7°F9.3°C 48.5°F9.2°C 99% 0.7 mph SE1.1 kmh SE 4.5 mph7.2 kmh 29.05 in983.7 mb 0.17 in4.3 mm 0.00 in0.0 mm 0.84 in21.3 mm
07:12 AM 48.7°F9.3°C 48.5°F9.2°C 99% Calm Calm 4.5 mph7.2 kmh 29.05 in983.7 mb 0.18 in4.6 mm 0.00 in0.0 mm 0.84 in21.3 mm
07:11 AM 48.7°F9.3°C 48.5°F9.2°C 99% 1.6 mph SE2.6 kmh SE 4.5 mph7.2 kmh 29.04 in983.4 mb 0.18 in4.6 mm 0.00 in0.0 mm 0.84 in21.3 mm
07:10 AM 48.7°F9.3°C 48.5°F9.2°C 99% Calm Calm 4.5 mph7.2 kmh 29.05 in983.7 mb 0.18 in4.6 mm 0.00 in0.0 mm 0.84 in21.3 mm
07:09 AM 48.7°F9.3°C 48.5°F9.2°C 99% 1.6 mph SE2.6 kmh SE 4.5 mph7.2 kmh 29.04 in983.4 mb 0.19 in4.8 mm 0.00 in0.0 mm 0.84 in21.3 mm
07:08 AM 48.7°F9.3°C 48.5°F9.2°C 99% 2.2 mph SE3.5 kmh SE 4.5 mph7.2 kmh 29.05 in983.7 mb 0.19 in4.8 mm 0.00 in0.0 mm 0.84 in21.3 mm
07:07 AM 48.7°F9.3°C 48.5°F9.2°C 99% 1.6 mph SE2.6 kmh SE 4.5 mph7.2 kmh 29.04 in983.4 mb 0.19 in4.8 mm 0.00 in0.0 mm 0.84 in21.3 mm
07:06 AM 48.6°F9.2°C 48.3°F9.1°C 99% 0.7 mph SE1.1 kmh SE 3.8 mph6.1 kmh 29.04 in983.4 mb 0.19 in4.8 mm 0.60 in15.2 mm 0.84 in21.3 mm
07:05 AM 48.6°F9.2°C 48.3°F9.1°C 99% 1.6 mph SE2.6 kmh SE 5.4 mph8.7 kmh 29.04 in983.4 mb 0.18 in4.6 mm 0.00 in0.0 mm 0.83 in21.1 mm
07:04 AM 48.6°F9.2°C 48.3°F9.1°C 99% 1.6 mph SE2.6 kmh SE 5.4 mph8.7 kmh 29.05 in983.7 mb 0.18 in4.6 mm 0.00 in0.0 mm 0.83 in21.1 mm
07:03 AM 48.6°F9.2°C 48.3°F9.1°C 99% 1.6 mph ESE2.6 kmh ESE 5.4 mph8.7 kmh 29.04 in983.4 mb 0.18 in4.6 mm 0.00 in0.0 mm 0.83 in21.1 mm
07:02 AM 48.6°F9.2°C 48.3°F9.1°C 99% 1.6 mph ESE2.6 kmh ESE 5.4 mph8.7 kmh 29.04 in983.4 mb 0.18 in4.6 mm 0.00 in0.0 mm 0.83 in21.1 mm
07:01 AM 48.6°F9.2°C 48.3°F9.1°C 99% 1.6 mph SE2.6 kmh SE 5.4 mph8.7 kmh 29.04 in983.4 mb 0.18 in4.6 mm 0.00 in0.0 mm 0.83 in21.1 mm
07:00 AM 48.6°F9.2°C 48.3°F9.1°C 99% 1.6 mph ESE2.6 kmh ESE 6.0 mph9.7 kmh 29.04 in983.4 mb 0.18 in4.6 mm 0.00 in0.0 mm 0.83 in21.1 mm
06:59 AM 48.7°F9.3°C 48.5°F9.2°C 99% 0.7 mph ESE1.1 kmh ESE 6.0 mph9.7 kmh 29.04 in983.4 mb 0.18 in4.6 mm 0.00 in0.0 mm 0.83 in21.1 mm
06:58 AM 48.6°F9.2°C 48.3°F9.1°C 99% Calm Calm 6.0 mph9.7 kmh 29.04 in983.4 mb 0.18 in4.6 mm 0.60 in15.2 mm 0.83 in21.1 mm
06:57 AM 48.7°F9.3°C 48.5°F9.2°C 99% 0.7 mph E1.1 kmh E 6.0 mph9.7 kmh 29.04 in983.4 mb 0.17 in4.3 mm 0.00 in0.0 mm 0.81 in20.6 mm
06:56 AM 48.7°F9.3°C 48.5°F9.2°C 99% 1.6 mph E2.6 kmh E 6.0 mph9.7 kmh 29.04 in983.4 mb 0.17 in4.3 mm 0.00 in0.0 mm 0.81 in20.6 mm
06:55 AM 48.7°F9.3°C 48.5°F9.2°C 99% 3.1 mph E5.0 kmh E 6.0 mph9.7 kmh 29.04 in983.4 mb 0.17 in4.3 mm 0.00 in0.0 mm 0.81 in20.6 mm
06:54 AM 48.6°F9.2°C 48.3°F9.1°C 99% 0.7 mph E1.1 kmh E 6.0 mph9.7 kmh 29.04 in983.4 mb 0.17 in4.3 mm 1.20 in30.5 mm 0.81 in20.6 mm
06:53 AM 48.7°F9.3°C 48.5°F9.2°C 99% 0.7 mph E1.1 kmh E 6.0 mph9.7 kmh 29.04 in983.4 mb 0.15 in3.8 mm 0.00 in0.0 mm 0.80 in20.3 mm
06:52 AM 48.7°F9.3°C 48.5°F9.2°C 99% 2.2 mph E3.5 kmh E 6.0 mph9.7 kmh 29.04 in983.4 mb 0.17 in4.3 mm 0.00 in0.0 mm 0.80 in20.3 mm
06:51 AM 48.7°F9.3°C 48.5°F9.2°C 99% 2.2 mph E3.5 kmh E 6.0 mph9.7 kmh 29.04 in983.4 mb 0.17 in4.3 mm 0.00 in0.0 mm 0.80 in20.3 mm
06:50 AM 48.7°F9.3°C 48.5°F9.2°C 99% 2.2 mph E3.5 kmh E 6.0 mph9.7 kmh 29.04 in983.4 mb 0.17 in4.3 mm 1.20 in30.5 mm 0.80 in20.3 mm
06:49 AM 48.7°F9.3°C 48.5°F9.2°C 99% 1.6 mph E2.6 kmh E 6.0 mph9.7 kmh 29.04 in983.4 mb 0.15 in3.8 mm 0.00 in0.0 mm 0.79 in20.1 mm
06:48 AM 48.7°F9.3°C 48.5°F9.2°C 99% 0.7 mph E1.1 kmh E 6.0 mph9.7 kmh 29.04 in983.4 mb 0.15 in3.8 mm 0.00 in0.0 mm 0.79 in20.1 mm
06:47 AM 48.7°F9.3°C 48.5°F9.2°C 99% 1.6 mph E2.6 kmh E 6.0 mph9.7 kmh 29.04 in983.4 mb 0.15 in3.8 mm 0.00 in0.0 mm 0.79 in20.1 mm
06:46 AM 48.7°F9.3°C 48.5°F9.2°C 99% 1.6 mph E2.6 kmh E 6.0 mph9.7 kmh 29.04 in983.4 mb 0.15 in3.8 mm 0.00 in0.0 mm 0.79 in20.1 mm
06:45 AM 48.7°F9.3°C 48.5°F9.2°C 99% 1.6 mph ESE2.6 kmh ESE 6.0 mph9.7 kmh 29.03 in983.1 mb 0.15 in3.8 mm 0.00 in0.0 mm 0.79 in20.1 mm
06:44 AM 48.7°F9.3°C 48.5°F9.2°C 99% Calm Calm 6.0 mph9.7 kmh 29.04 in983.4 mb 0.15 in3.8 mm 0.00 in0.0 mm 0.79 in20.1 mm
06:43 AM 48.7°F9.3°C 48.5°F9.2°C 99% 0.7 mph ESE1.1 kmh ESE 6.0 mph9.7 kmh 29.04 in983.4 mb 0.15 in3.8 mm 0.00 in0.0 mm 0.79 in20.1 mm
06:42 AM 48.6°F9.2°C 48.3°F9.1°C 99% 3.8 mph ESE6.1 kmh ESE 6.0 mph9.7 kmh 29.03 in983.1 mb 0.15 in3.8 mm 0.60 in15.2 mm 0.79 in20.1 mm
06:41 AM 48.7°F9.3°C 48.5°F9.2°C 99% 1.6 mph ESE2.6 kmh ESE 5.4 mph8.7 kmh 29.03 in983.1 mb 0.14 in3.6 mm 0.00 in0.0 mm 0.78 in19.8 mm
06:40 AM 48.6°F9.2°C 48.3°F9.1°C 99% 0.7 mph E1.1 kmh E 5.4 mph8.7 kmh 29.03 in983.1 mb 0.14 in3.6 mm 0.00 in0.0 mm 0.78 in19.8 mm
06:39 AM 48.6°F9.2°C 48.3°F9.1°C 99% 1.6 mph E2.6 kmh E 5.4 mph8.7 kmh 29.03 in983.1 mb 0.14 in3.6 mm 0.00 in0.0 mm 0.78 in19.8 mm
06:38 AM 48.6°F9.2°C 48.3°F9.1°C 99% 2.2 mph E3.5 kmh E 5.4 mph8.7 kmh 29.04 in983.4 mb 0.14 in3.6 mm 0.00 in0.0 mm 0.78 in19.8 mm
06:37 AM 48.6°F9.2°C 48.3°F9.1°C 99% 2.2 mph E3.5 kmh E 5.4 mph8.7 kmh 29.03 in983.1 mb 0.14 in3.6 mm 0.60 in15.2 mm 0.78 in19.8 mm
06:36 AM 48.7°F9.3°C 48.5°F9.2°C 99% 1.6 mph E2.6 kmh E 5.4 mph8.7 kmh 29.03 in983.1 mb 0.13 in3.3 mm 0.00 in0.0 mm 0.77 in19.6 mm
06:35 AM 48.6°F9.2°C 48.3°F9.1°C 99% 2.2 mph ENE3.5 kmh ENE 5.4 mph8.7 kmh 29.03 in983.1 mb 0.13 in3.3 mm 0.00 in0.0 mm 0.77 in19.6 mm
06:34 AM 48.6°F9.2°C 48.3°F9.1°C 99% 1.6 mph ENE2.6 kmh ENE 3.8 mph6.1 kmh 29.03 in983.1 mb 0.13 in3.3 mm 0.00 in0.0 mm 0.77 in19.6 mm
06:33 AM 48.6°F9.2°C 48.3°F9.1°C 99% 0.7 mph ENE1.1 kmh ENE 3.1 mph5.0 kmh 29.03 in983.1 mb 0.13 in3.3 mm 0.00 in0.0 mm 0.77 in19.6 mm
06:32 AM 48.7°F9.3°C 48.5°F9.2°C 99% 0.7 mph NE1.1 kmh NE 2.2 mph3.5 kmh 29.04 in983.4 mb 0.13 in3.3 mm 0.00 in0.0 mm 0.77 in19.6 mm
06:31 AM 48.6°F9.2°C 48.3°F9.1°C 99% Calm Calm 2.2 mph3.5 kmh 29.04 in983.4 mb 0.13 in3.3 mm 0.60 in15.2 mm 0.77 in19.6 mm
06:30 AM 48.6°F9.2°C 48.3°F9.1°C 99% 0.7 mph ESE1.1 kmh ESE 3.8 mph6.1 kmh 29.04 in983.4 mb 0.12 in3.0 mm 0.00 in0.0 mm 0.76 in19.3 mm
06:29 AM 48.6°F9.2°C 48.3°F9.1°C 99% 0.7 mph SE1.1 kmh SE 3.8 mph6.1 kmh 29.04 in983.4 mb 0.12 in3.0 mm 0.60 in15.2 mm 0.76 in19.3 mm
06:28 AM 48.6°F9.2°C 48.3°F9.1°C 99% Calm Calm 3.8 mph6.1 kmh 29.04 in983.4 mb 0.11 in2.8 mm 0.00 in0.0 mm 0.74 in18.8 mm
06:27 AM 48.6°F9.2°C 48.3°F9.1°C 99% Calm Calm 3.8 mph6.1 kmh 29.04 in983.4 mb 0.11 in2.8 mm 0.00 in0.0 mm 0.74 in18.8 mm
06:26 AM 48.6°F9.2°C 48.3°F9.1°C 99% Calm Calm 3.8 mph6.1 kmh 29.04 in983.4 mb 0.11 in2.8 mm 1.20 in30.5 mm 0.74 in18.8 mm
06:25 AM 48.6°F9.2°C 48.3°F9.1°C 99% Calm Calm 3.8 mph6.1 kmh 29.03 in983.1 mb 0.09 in2.3 mm 0.00 in0.0 mm 0.73 in18.5 mm
06:24 AM 48.7°F9.3°C 48.5°F9.2°C 99% Calm Calm 3.8 mph6.1 kmh 29.03 in983.1 mb 0.09 in2.3 mm 0.00 in0.0 mm 0.73 in18.5 mm
06:23 AM 48.7°F9.3°C 48.5°F9.2°C 99% Calm Calm 3.8 mph6.1 kmh 29.04 in983.4 mb 0.11 in2.8 mm 1.20 in30.5 mm 0.73 in18.5 mm
06:22 AM 48.7°F9.3°C 48.5°F9.2°C 99% Calm Calm 3.8 mph6.1 kmh 29.04 in983.4 mb 0.09 in2.3 mm 0.00 in0.0 mm 0.72 in18.3 mm
06:21 AM 48.7°F9.3°C 48.5°F9.2°C 99% Calm Calm 3.8 mph6.1 kmh 29.03 in983.1 mb 0.09 in2.3 mm 0.60 in15.2 mm 0.72 in18.3 mm
06:20 AM 48.6°F9.2°C 48.3°F9.1°C 99% 0.7 mph SE1.1 kmh SE 3.8 mph6.1 kmh 29.04 in983.4 mb 0.08 in2.0 mm 0.00 in0.0 mm 0.71 in18.0 mm
06:19 AM 48.6°F9.2°C 48.3°F9.1°C 99% Calm Calm 3.8 mph6.1 kmh 29.04 in983.4 mb 0.08 in2.0 mm 0.60 in15.2 mm 0.71 in18.0 mm
06:18 AM 48.7°F9.3°C 48.5°F9.2°C 99% 1.6 mph SSE2.6 kmh SSE 3.8 mph6.1 kmh 29.03 in983.1 mb 0.07 in1.8 mm 0.00 in0.0 mm 0.70 in17.8 mm
06:17 AM 48.6°F9.2°C 48.3°F9.1°C 99% Calm Calm 3.8 mph6.1 kmh 29.03 in983.1 mb 0.07 in1.8 mm 0.60 in15.2 mm 0.70 in17.8 mm
06:16 AM 48.7°F9.3°C 48.5°F9.2°C 99% Calm Calm 3.8 mph6.1 kmh 29.03 in983.1 mb 0.06 in1.5 mm 0.00 in0.0 mm 0.69 in17.5 mm
06:15 AM 48.6°F9.2°C 48.3°F9.1°C 99% 0.7 mph ESE1.1 kmh ESE 3.8 mph6.1 kmh 29.03 in983.1 mb 0.06 in1.5 mm 0.00 in0.0 mm 0.69 in17.5 mm
06:14 AM 48.6°F9.2°C 48.3°F9.1°C 99% 0.7 mph NE1.1 kmh NE 3.8 mph6.1 kmh 29.03 in983.1 mb 0.06 in1.5 mm 0.00 in0.0 mm 0.67 in17.0 mm
06:13 AM 48.7°F9.3°C 48.5°F9.2°C 99% Calm Calm 3.1 mph5.0 kmh 29.03 in983.1 mb 0.06 in1.5 mm 0.60 in15.2 mm 0.67 in17.0 mm
06:12 AM 48.7°F9.3°C 48.5°F9.2°C 99% 0.7 mph NE1.1 kmh NE 3.1 mph5.0 kmh 29.03 in983.1 mb 0.05 in1.3 mm 0.00 in0.0 mm 0.66 in16.8 mm
06:11 AM 48.7°F9.3°C 48.5°F9.2°C 99% Calm Calm 3.1 mph5.0 kmh 29.03 in983.1 mb 0.05 in1.3 mm 0.00 in0.0 mm 0.66 in16.8 mm
06:10 AM 48.7°F9.3°C 48.5°F9.2°C 99% Calm Calm 3.1 mph5.0 kmh 29.03 in983.1 mb 0.05 in1.3 mm 0.60 in15.2 mm 0.66 in16.8 mm
06:09 AM 48.7°F9.3°C 48.5°F9.2°C 99% Calm Calm 3.1 mph5.0 kmh 29.03 in983.1 mb 0.04 in1.0 mm 0.00 in0.0 mm 0.65 in16.5 mm
06:08 AM 48.7°F9.3°C 48.5°F9.2°C 99% Calm Calm 3.8 mph6.1 kmh 29.03 in983.1 mb 0.04 in1.0 mm 0.00 in0.0 mm 0.65 in16.5 mm
06:07 AM 48.7°F9.3°C 48.5°F9.2°C 99% Calm Calm 3.8 mph6.1 kmh 29.03 in983.1 mb 0.04 in1.0 mm 0.00 in0.0 mm 0.65 in16.5 mm
06:06 AM 48.7°F9.3°C 48.5°F9.2°C 99% 1.6 mph N2.6 kmh N 3.8 mph6.1 kmh 29.03 in983.1 mb 0.05 in1.3 mm 0.00 in0.0 mm 0.65 in16.5 mm
06:05 AM 48.6°F9.2°C 48.3°F9.1°C 99% Calm Calm 3.8 mph6.1 kmh 29.03 in983.1 mb 0.05 in1.3 mm 0.00 in0.0 mm 0.65 in16.5 mm
06:04 AM 48.6°F9.2°C 48.3°F9.1°C 99% Calm Calm 3.8 mph6.1 kmh 29.03 in983.1 mb 0.05 in1.3 mm 0.00 in0.0 mm 0.65 in16.5 mm
06:03 AM 48.6°F9.2°C 48.3°F9.1°C 99% Calm Calm 3.8 mph6.1 kmh 29.03 in983.1 mb 0.05 in1.3 mm 0.00 in0.0 mm 0.65 in16.5 mm
06:02 AM 48.6°F9.2°C 48.3°F9.1°C 99% Calm Calm 3.8 mph6.1 kmh 29.02 in982.7 mb 0.05 in1.3 mm 0.00 in0.0 mm 0.65 in16.5 mm
06:01 AM 48.6°F9.2°C 48.3°F9.1°C 99% Calm Calm 3.8 mph6.1 kmh 29.02 in982.7 mb 0.05 in1.3 mm 0.00 in0.0 mm 0.65 in16.5 mm
06:00 AM 48.6°F9.2°C 48.3°F9.1°C 99% Calm Calm 3.8 mph6.1 kmh 29.03 in983.1 mb 0.05 in1.3 mm 0.00 in0.0 mm 0.65 in16.5 mm
05:59 AM 48.7°F9.3°C 48.5°F9.2°C 99% 0.7 mph E1.1 kmh E 3.8 mph6.1 kmh 29.03 in983.1 mb 0.05 in1.3 mm 0.00 in0.0 mm 0.65 in16.5 mm
05:58 AM 48.6°F9.2°C 48.3°F9.1°C 99% 1.6 mph SSE2.6 kmh SSE 3.8 mph6.1 kmh 29.03 in983.1 mb 0.05 in1.3 mm 0.00 in0.0 mm 0.65 in16.5 mm
05:57 AM 48.7°F9.3°C 48.5°F9.2°C 99% 0.7 mph S1.1 kmh S 3.1 mph5.0 kmh 29.03 in983.1 mb 0.05 in1.3 mm 0.00 in0.0 mm 0.65 in16.5 mm
05:56 AM 48.7°F9.3°C 48.5°F9.2°C 99% Calm Calm 4.5 mph7.2 kmh 29.02 in982.7 mb 0.05 in1.3 mm 0.00 in0.0 mm 0.65 in16.5 mm
05:55 AM 48.7°F9.3°C 48.5°F9.2°C 99% 0.7 mph WSW1.1 kmh WSW 4.5 mph7.2 kmh 29.03 in983.1 mb 0.05 in1.3 mm 0.00 in0.0 mm 0.65 in16.5 mm
05:54 AM 48.7°F9.3°C 48.5°F9.2°C 99% 0.7 mph WSW1.1 kmh WSW 4.5 mph7.2 kmh 29.03 in983.1 mb 0.05 in1.3 mm 0.00 in0.0 mm 0.65 in16.5 mm
05:53 AM 48.6°F9.2°C 48.3°F9.1°C 99% Calm Calm 4.5 mph7.2 kmh 29.02 in982.7 mb 0.05 in1.3 mm 0.60 in15.2 mm 0.65 in16.5 mm
05:52 AM 48.7°F9.3°C 48.5°F9.2°C 99% Calm Calm 4.5 mph7.2 kmh 29.03 in983.1 mb 0.04 in1.0 mm 0.00 in0.0 mm 0.64 in16.3 mm
05:51 AM 48.7°F9.3°C 48.5°F9.2°C 99% Calm Calm 6.0 mph9.7 kmh 29.02 in982.7 mb 0.04 in1.0 mm 0.00 in0.0 mm 0.64 in16.3 mm
05:50 AM 48.7°F9.3°C 48.5°F9.2°C 99% Calm Calm 6.0 mph9.7 kmh 29.02 in982.7 mb 0.04 in1.0 mm 0.00 in0.0 mm 0.64 in16.3 mm
05:49 AM 48.7°F9.3°C 48.5°F9.2°C 99% 0.7 mph NNE1.1 kmh NNE 6.0 mph9.7 kmh 29.02 in982.7 mb 0.04 in1.0 mm 0.00 in0.0 mm 0.64 in16.3 mm
05:48 AM 48.7°F9.3°C 48.5°F9.2°C 99% 0.7 mph NNW1.1 kmh NNW 6.0 mph9.7 kmh 29.02 in982.7 mb 0.04 in1.0 mm 0.00 in0.0 mm 0.64 in16.3 mm
05:47 AM 48.7°F9.3°C 48.5°F9.2°C 99% Calm Calm 6.0 mph9.7 kmh 29.02 in982.7 mb 0.04 in1.0 mm 0.00 in0.0 mm 0.64 in16.3 mm
05:46 AM 48.7°F9.3°C 48.5°F9.2°C 99% 2.2 mph NE3.5 kmh NE 6.0 mph9.7 kmh 29.02 in982.7 mb 0.04 in1.0 mm 0.00 in0.0 mm 0.64 in16.3 mm
05:45 AM 48.7°F9.3°C 48.5°F9.2°C 99% 2.2 mph ENE3.5 kmh ENE 6.0 mph9.7 kmh 29.02 in982.7 mb 0.04 in1.0 mm 0.00 in0.0 mm 0.64 in16.3 mm
05:44 AM 48.7°F9.3°C 48.5°F9.2°C 99% Calm Calm 6.0 mph9.7 kmh 29.02 in982.7 mb 0.04 in1.0 mm 0.00 in0.0 mm 0.64 in16.3 mm
05:43 AM 48.7°F9.3°C 48.5°F9.2°C 99% 0.7 mph E1.1 kmh E 6.0 mph9.7 kmh 29.02 in982.7 mb 0.04 in1.0 mm 0.00 in0.0 mm 0.64 in16.3 mm
05:42 AM 48.6°F9.2°C 48.3°F9.1°C 99% 1.6 mph ENE2.6 kmh ENE 6.0 mph9.7 kmh 29.02 in982.7 mb 0.04 in1.0 mm 0.00 in0.0 mm 0.64 in16.3 mm
05:41 AM 48.7°F9.3°C 48.5°F9.2°C 99% 3.1 mph ENE5.0 kmh ENE 6.0 mph9.7 kmh 29.02 in982.7 mb 0.04 in1.0 mm 0.00 in0.0 mm 0.64 in16.3 mm
05:40 AM 48.7°F9.3°C 48.5°F9.2°C 99% 3.1 mph E5.0 kmh E 5.4 mph8.7 kmh 29.02 in982.7 mb 0.04 in1.0 mm 0.00 in0.0 mm 0.64 in16.3 mm
05:39 AM 48.7°F9.3°C 48.5°F9.2°C 99% 1.6 mph SE2.6 kmh SE 5.4 mph8.7 kmh 29.03 in983.1 mb 0.04 in1.0 mm 0.00 in0.0 mm 0.64 in16.3 mm
05:38 AM 48.7°F9.3°C 48.5°F9.2°C 99% 1.6 mph ESE2.6 kmh ESE 5.4 mph8.7 kmh 29.02 in982.7 mb 0.04 in1.0 mm 0.00 in0.0 mm 0.64 in16.3 mm
05:37 AM 48.7°F9.3°C 48.5°F9.2°C 99% 1.6 mph ESE2.6 kmh ESE 5.4 mph8.7 kmh 29.02 in982.7 mb 0.04 in1.0 mm 0.00 in0.0 mm 0.64 in16.3 mm
05:36 AM 48.7°F9.3°C 48.5°F9.2°C 99% 1.6 mph ESE2.6 kmh ESE 5.4 mph8.7 kmh 29.02 in982.7 mb 0.04 in1.0 mm 0.00 in0.0 mm 0.64 in16.3 mm
05:35 AM 48.7°F9.3°C 48.5°F9.2°C 99% 0.7 mph E1.1 kmh E 5.4 mph8.7 kmh 29.02 in982.7 mb 0.04 in1.0 mm 0.00 in0.0 mm 0.64 in16.3 mm
05:34 AM 48.7°F9.3°C 48.5°F9.2°C 99% 0.7 mph E1.1 kmh E 5.4 mph8.7 kmh 29.02 in982.7 mb 0.04 in1.0 mm 0.00 in0.0 mm 0.64 in16.3 mm
05:33 AM 48.7°F9.3°C 48.5°F9.2°C 99% 1.6 mph E2.6 kmh E 5.4 mph8.7 kmh 29.02 in982.7 mb 0.04 in1.0 mm 0.00 in0.0 mm 0.64 in16.3 mm
05:32 AM 48.7°F9.3°C 48.5°F9.2°C 99% 0.7 mph E1.1 kmh E 5.4 mph8.7 kmh 29.03 in983.1 mb 0.04 in1.0 mm 0.00 in0.0 mm 0.64 in16.3 mm
05:31 AM 48.7°F9.3°C 48.5°F9.2°C 99% 0.7 mph E1.1 kmh E 5.4 mph8.7 kmh 29.03 in983.1 mb 0.04 in1.0 mm 0.00 in0.0 mm 0.64 in16.3 mm
05:30 AM 48.7°F9.3°C 48.5°F9.2°C 99% 0.7 mph E1.1 kmh E 5.4 mph8.7 kmh 29.02 in982.7 mb 0.04 in1.0 mm 0.00 in0.0 mm 0.64 in16.3 mm
05:29 AM 48.9°F9.4°C 48.7°F9.3°C 99% 1.6 mph ENE2.6 kmh ENE 4.5 mph7.2 kmh 29.03 in983.1 mb 0.04 in1.0 mm 0.00 in0.0 mm 0.64 in16.3 mm
05:28 AM 48.7°F9.3°C 48.5°F9.2°C 99% 1.6 mph ENE2.6 kmh ENE 4.5 mph7.2 kmh 29.03 in983.1 mb 0.04 in1.0 mm 0.00 in0.0 mm 0.64 in16.3 mm
05:27 AM 48.7°F9.3°C 48.5°F9.2°C 99% 1.6 mph ENE2.6 kmh ENE 4.5 mph7.2 kmh 29.02 in982.7 mb 0.04 in1.0 mm 0.00 in0.0 mm 0.64 in16.3 mm
05:26 AM 48.7°F9.3°C 48.5°F9.2°C 99% 0.7 mph ENE1.1 kmh ENE 4.5 mph7.2 kmh 29.02 in982.7 mb 0.04 in1.0 mm 0.00 in0.0 mm 0.64 in16.3 mm
05:25 AM 48.7°F9.3°C 48.5°F9.2°C 99% 1.6 mph E2.6 kmh E 4.5 mph7.2 kmh 29.02 in982.7 mb 0.04 in1.0 mm 1.20 in30.5 mm 0.64 in16.3 mm
05:24 AM 48.9°F9.4°C 48.7°F9.3°C 99% 0.7 mph ENE1.1 kmh ENE 4.5 mph7.2 kmh 29.02 in982.7 mb 0.02 in0.5 mm 0.00 in0.0 mm 0.63 in16.0 mm
05:23 AM 48.7°F9.3°C 48.5°F9.2°C 99% 1.6 mph E2.6 kmh E 4.5 mph7.2 kmh 29.02 in982.7 mb 0.02 in0.5 mm 0.00 in0.0 mm 0.63 in16.0 mm
05:22 AM 48.7°F9.3°C 48.5°F9.2°C 99% Calm Calm 4.5 mph7.2 kmh 29.03 in983.1 mb 0.02 in0.5 mm 0.00 in0.0 mm 0.63 in16.0 mm
05:21 AM 48.7°F9.3°C 48.5°F9.2°C 99% 2.2 mph ENE3.5 kmh ENE 4.5 mph7.2 kmh 29.02 in982.7 mb 0.05 in1.3 mm 0.00 in0.0 mm 0.63 in16.0 mm
05:20 AM 48.9°F9.4°C 48.7°F9.3°C 99% 2.2 mph E3.5 kmh E 4.5 mph7.2 kmh 29.02 in982.7 mb 0.05 in1.3 mm 0.00 in0.0 mm 0.63 in16.0 mm
05:19 AM 48.7°F9.3°C 48.5°F9.2°C 99% 0.7 mph E1.1 kmh E 3.8 mph6.1 kmh 29.02 in982.7 mb 0.05 in1.3 mm 0.00 in0.0 mm 0.63 in16.0 mm
05:18 AM 48.9°F9.4°C 48.7°F9.3°C 99% 1.6 mph E2.6 kmh E 3.8 mph6.1 kmh 29.03 in983.1 mb 0.05 in1.3 mm 0.00 in0.0 mm 0.63 in16.0 mm
05:17 AM 48.7°F9.3°C 48.5°F9.2°C 99% 1.6 mph S2.6 kmh S 3.8 mph6.1 kmh 29.02 in982.7 mb 0.05 in1.3 mm 0.00 in0.0 mm 0.63 in16.0 mm
05:16 AM 48.9°F9.4°C 48.7°F9.3°C 99% 1.6 mph S2.6 kmh S 3.8 mph6.1 kmh 29.03 in983.1 mb 0.06 in1.5 mm 0.00 in0.0 mm 0.63 in16.0 mm
05:15 AM 48.7°F9.3°C 48.5°F9.2°C 99% 1.6 mph S2.6 kmh S 3.8 mph6.1 kmh 29.03 in983.1 mb 0.06 in1.5 mm 0.60 in15.2 mm 0.63 in16.0 mm
05:14 AM 48.7°F9.3°C 48.5°F9.2°C 99% 0.7 mph S1.1 kmh S 3.8 mph6.1 kmh 29.03 in983.1 mb 0.05 in1.3 mm 0.00 in0.0 mm 0.61 in15.5 mm
05:13 AM 48.7°F9.3°C 48.5°F9.2°C 99% 0.7 mph S1.1 kmh S 3.8 mph6.1 kmh 29.03 in983.1 mb 0.05 in1.3 mm 0.00 in0.0 mm 0.61 in15.5 mm
05:12 AM 48.7°F9.3°C 48.5°F9.2°C 99% 0.7 mph S1.1 kmh S 3.8 mph6.1 kmh 29.03 in983.1 mb 0.05 in1.3 mm 0.00 in0.0 mm 0.61 in15.5 mm
05:11 AM 48.7°F9.3°C 48.5°F9.2°C 99% 0.7 mph S1.1 kmh S 3.8 mph6.1 kmh 29.03 in983.1 mb 0.05 in1.3 mm 0.00 in0.0 mm 0.61 in15.5 mm
05:10 AM 48.7°F9.3°C 48.5°F9.2°C 99% 1.6 mph S2.6 kmh S 3.8 mph6.1 kmh 29.03 in983.1 mb 0.06 in1.5 mm 0.00 in0.0 mm 0.61 in15.5 mm
05:09 AM 48.7°F9.3°C 48.5°F9.2°C 99% 1.6 mph S2.6 kmh S 4.5 mph7.2 kmh 29.03 in983.1 mb 0.06 in1.5 mm 0.00 in0.0 mm 0.61 in15.5 mm
05:08 AM 48.7°F9.3°C 48.5°F9.2°C 99% 0.7 mph S1.1 kmh S 4.5 mph7.2 kmh 29.03 in983.1 mb 0.06 in1.5 mm 0.60 in15.2 mm 0.61 in15.5 mm
05:07 AM 48.9°F9.4°C 48.7°F9.3°C 99% 1.6 mph S2.6 kmh S 9.2 mph14.8 kmh 29.03 in983.1 mb 0.05 in1.3 mm 0.00 in0.0 mm 0.60 in15.2 mm
05:06 AM 48.9°F9.4°C 48.7°F9.3°C 99% 1.6 mph SSE2.6 kmh SSE 9.2 mph14.8 kmh 29.02 in982.7 mb 0.05 in1.3 mm 0.00 in0.0 mm 0.60 in15.2 mm
05:05 AM 48.9°F9.4°C 48.7°F9.3°C 99% 1.6 mph SSE2.6 kmh SSE 9.2 mph14.8 kmh 29.02 in982.7 mb 0.06 in1.5 mm 0.00 in0.0 mm 0.60 in15.2 mm
05:04 AM 48.9°F9.4°C 48.7°F9.3°C 99% 1.6 mph SSE2.6 kmh SSE 9.2 mph14.8 kmh 29.02 in982.7 mb 0.06 in1.5 mm 0.00 in0.0 mm 0.60 in15.2 mm
05:03 AM 48.9°F9.4°C 48.7°F9.3°C 99% 1.6 mph SSE2.6 kmh SSE 9.8 mph15.8 kmh 29.02 in982.7 mb 0.06 in1.5 mm 0.00 in0.0 mm 0.60 in15.2 mm
05:02 AM 48.9°F9.4°C 48.7°F9.3°C 99% 1.6 mph SE2.6 kmh SE 9.8 mph15.8 kmh 29.02 in982.7 mb 0.06 in1.5 mm 0.00 in0.0 mm 0.60 in15.2 mm
05:01 AM 48.9°F9.4°C 48.7°F9.3°C 99% 1.6 mph SE2.6 kmh SE 9.8 mph15.8 kmh 29.03 in983.1 mb 0.06 in1.5 mm 0.00 in0.0 mm 0.60 in15.2 mm
05:00 AM 48.9°F9.4°C 48.7°F9.3°C 99% 1.6 mph SE2.6 kmh SE 9.8 mph15.8 kmh 29.03 in983.1 mb 0.06 in1.5 mm 0.00 in0.0 mm 0.60 in15.2 mm
04:59 AM 48.9°F9.4°C 48.7°F9.3°C 99% 2.2 mph SE3.5 kmh SE 9.8 mph15.8 kmh 29.03 in983.1 mb 0.06 in1.5 mm 0.00 in0.0 mm 0.60 in15.2 mm
04:58 AM 48.7°F9.3°C 48.5°F9.2°C 99% 3.1 mph SE5.0 kmh SE 9.8 mph15.8 kmh 29.03 in983.1 mb 0.06 in1.5 mm 0.00 in0.0 mm 0.60 in15.2 mm
04:57 AM 48.7°F9.3°C 48.5°F9.2°C 99% 4.5 mph SE7.2 kmh SE 13.0 mph20.9 kmh 29.03 in983.1 mb 0.06 in1.5 mm 0.00 in0.0 mm 0.60 in15.2 mm
04:56 AM 48.9°F9.4°C 48.7°F9.3°C 99% 3.8 mph SE6.1 kmh SE 13.0 mph20.9 kmh 29.02 in982.7 mb 0.07 in1.8 mm 0.00 in0.0 mm 0.60 in15.2 mm
04:55 AM 48.7°F9.3°C 48.5°F9.2°C 99% 2.2 mph SE3.5 kmh SE 13.0 mph20.9 kmh 29.02 in982.7 mb 0.07 in1.8 mm 0.00 in0.0 mm 0.60 in15.2 mm
04:54 AM 48.9°F9.4°C 48.7°F9.3°C 99% 3.1 mph SE5.0 kmh SE 13.0 mph20.9 kmh 29.02 in982.7 mb 0.07 in1.8 mm 0.00 in0.0 mm 0.60 in15.2 mm
04:53 AM 48.9°F9.4°C 48.7°F9.3°C 99% 3.1 mph ESE5.0 kmh ESE 13.0 mph20.9 kmh 29.02 in982.7 mb 0.07 in1.8 mm 0.00 in0.0 mm 0.60 in15.2 mm
04:52 AM 48.9°F9.4°C 48.7°F9.3°C 99% 3.1 mph ESE5.0 kmh ESE 13.0 mph20.9 kmh 29.02 in982.7 mb 0.08 in2.0 mm 0.00 in0.0 mm 0.60 in15.2 mm
04:51 AM 48.7°F9.3°C 48.5°F9.2°C 99% 1.6 mph ESE2.6 kmh ESE 13.0 mph20.9 kmh 29.02 in982.7 mb 0.08 in2.0 mm 0.00 in0.0 mm 0.60 in15.2 mm
04:50 AM 48.7°F9.3°C 48.5°F9.2°C 99% 3.8 mph E6.1 kmh E 13.0 mph20.9 kmh 29.02 in982.7 mb 0.08 in2.0 mm 0.00 in0.0 mm 0.60 in15.2 mm
04:49 AM 48.9°F9.4°C 48.7°F9.3°C 99% 1.6 mph ESE2.6 kmh ESE 13.0 mph20.9 kmh 29.02 in982.7 mb 0.08 in2.0 mm 0.00 in0.0 mm 0.60 in15.2 mm
04:48 AM 48.7°F9.3°C 48.5°F9.2°C 99% 4.5 mph E7.2 kmh E 13.0 mph20.9 kmh 29.02 in982.7 mb 0.08 in2.0 mm 0.00 in0.0 mm 0.60 in15.2 mm
04:47 AM 48.9°F9.4°C 48.7°F9.3°C 99% 3.8 mph E6.1 kmh E 13.0 mph20.9 kmh 29.02 in982.7 mb 0.09 in2.3 mm 0.00 in0.0 mm 0.60 in15.2 mm
04:46 AM 48.9°F9.4°C 48.7°F9.3°C 99% 3.8 mph SE6.1 kmh SE 13.0 mph20.9 kmh 29.02 in982.7 mb 0.09 in2.3 mm 0.00 in0.0 mm 0.60 in15.2 mm
04:45 AM 48.6°F9.2°C 48.3°F9.1°C 99% 1.6 mph SE2.6 kmh SE 9.2 mph14.8 kmh 29.02 in982.7 mb 0.09 in2.3 mm 0.00 in0.0 mm 0.60 in15.2 mm
04:44 AM 48.7°F9.3°C 48.5°F9.2°C 99% 3.8 mph SE6.1 kmh SE 9.2 mph14.8 kmh 29.02 in982.7 mb 0.11 in2.8 mm 0.00 in0.0 mm 0.60 in15.2 mm
04:43 AM 48.7°F9.3°C 48.5°F9.2°C 99% 0.7 mph SE1.1 kmh SE 9.2 mph14.8 kmh 29.02 in982.7 mb 0.11 in2.8 mm 0.00 in0.0 mm 0.60 in15.2 mm
04:42 AM 48.7°F9.3°C 48.5°F9.2°C 99% 2.2 mph SE3.5 kmh SE 9.2 mph14.8 kmh 29.02 in982.7 mb 0.11 in2.8 mm 0.00 in0.0 mm 0.60 in15.2 mm
04:41 AM 48.7°F9.3°C 48.5°F9.2°C 99% 2.2 mph SE3.5 kmh SE 9.2 mph14.8 kmh 29.02 in982.7 mb 0.11 in2.8 mm 0.00 in0.0 mm 0.60 in15.2 mm
04:40 AM 48.7°F9.3°C 48.5°F9.2°C 99% 4.5 mph SSE7.2 kmh SSE 9.2 mph14.8 kmh 29.02 in982.7 mb 0.11 in2.8 mm 0.00 in0.0 mm 0.60 in15.2 mm
04:39 AM 48.7°F9.3°C 48.5°F9.2°C 99% 3.1 mph SSE5.0 kmh SSE 9.8 mph15.8 kmh 29.02 in982.7 mb 0.11 in2.8 mm 0.00 in0.0 mm 0.60 in15.2 mm
04:38 AM 48.7°F9.3°C 48.5°F9.2°C 99% 3.1 mph SSE5.0 kmh SSE 9.8 mph15.8 kmh 29.02 in982.7 mb 0.11 in2.8 mm 0.00 in0.0 mm 0.60 in15.2 mm
04:37 AM 48.7°F9.3°C 48.5°F9.2°C 99% 2.2 mph SSE3.5 kmh SSE 9.8 mph15.8 kmh 29.02 in982.7 mb 0.12 in3.0 mm 0.00 in0.0 mm 0.60 in15.2 mm
04:36 AM 48.7°F9.3°C 48.5°F9.2°C 99% 2.2 mph SE3.5 kmh SE 9.8 mph15.8 kmh 29.02 in982.7 mb 0.12 in3.0 mm 0.00 in0.0 mm 0.60 in15.2 mm
04:35 AM 48.7°F9.3°C 48.5°F9.2°C 99% 0.7 mph SE1.1 kmh SE 11.4 mph18.3 kmh 29.02 in982.7 mb 0.12 in3.0 mm 0.00 in0.0 mm 0.60 in15.2 mm
04:34 AM 48.7°F9.3°C 48.5°F9.2°C 99% 0.7 mph SE1.1 kmh SE 11.4 mph18.3 kmh 29.02 in982.7 mb 0.12 in3.0 mm 0.00 in0.0 mm 0.60 in15.2 mm
04:33 AM 48.7°F9.3°C 48.5°F9.2°C 99% 3.8 mph SE6.1 kmh SE 11.4 mph18.3 kmh 29.02 in982.7 mb 0.13 in3.3 mm 0.00 in0.0 mm 0.60 in15.2 mm
04:32 AM 48.7°F9.3°C 48.5°F9.2°C 99% 1.6 mph SSE2.6 kmh SSE 12.1 mph19.5 kmh 29.02 in982.7 mb 0.13 in3.3 mm 0.00 in0.0 mm 0.60 in15.2 mm
04:31 AM 48.7°F9.3°C 48.5°F9.2°C 99% 1.6 mph SE2.6 kmh SE 12.1 mph19.5 kmh 29.02 in982.7 mb 0.14 in3.6 mm 0.00 in0.0 mm 0.60 in15.2 mm
04:30 AM 48.7°F9.3°C 48.5°F9.2°C 99% 1.6 mph SE2.6 kmh SE 12.1 mph19.5 kmh 29.02 in982.7 mb 0.14 in3.6 mm 0.00 in0.0 mm 0.60 in15.2 mm
04:29 AM 48.7°F9.3°C 48.5°F9.2°C 99% 5.4 mph SE8.7 kmh SE 12.1 mph19.5 kmh 29.02 in982.7 mb 0.14 in3.6 mm 0.00 in0.0 mm 0.60 in15.2 mm
04:28 AM 48.7°F9.3°C 48.5°F9.2°C 99% 3.8 mph SSE6.1 kmh SSE 12.1 mph19.5 kmh 29.02 in982.7 mb 0.15 in3.8 mm 0.00 in0.0 mm 0.60 in15.2 mm
04:27 AM 48.9°F9.4°C 48.7°F9.3°C 99% 3.1 mph SSE5.0 kmh SSE 12.1 mph19.5 kmh 29.02 in982.7 mb 0.15 in3.8 mm 0.00 in0.0 mm 0.60 in15.2 mm
04:26 AM 48.7°F9.3°C 48.5°F9.2°C 99% 3.8 mph S6.1 kmh S 12.1 mph19.5 kmh 29.02 in982.7 mb 0.15 in3.8 mm 0.00 in0.0 mm 0.60 in15.2 mm
04:25 AM 48.7°F9.3°C 48.5°F9.2°C 99% 4.5 mph S7.2 kmh S 12.1 mph19.5 kmh 29.02 in982.7 mb 0.17 in4.3 mm 0.00 in0.0 mm 0.60 in15.2 mm
04:24 AM 48.7°F9.3°C 48.5°F9.2°C 99% 1.6 mph S2.6 kmh S 12.1 mph19.5 kmh 29.02 in982.7 mb 0.17 in4.3 mm 0.00 in0.0 mm 0.60 in15.2 mm
04:23 AM 48.7°F9.3°C 48.5°F9.2°C 99% 1.6 mph S2.6 kmh S 12.1 mph19.5 kmh 29.02 in982.7 mb 0.17 in4.3 mm 0.00 in0.0 mm 0.60 in15.2 mm
04:22 AM 48.6°F9.2°C 48.3°F9.1°C 99% 4.5 mph SSE7.2 kmh SSE 12.1 mph19.5 kmh 29.02 in982.7 mb 0.17 in4.3 mm 1.80 in45.7 mm 0.60 in15.2 mm
04:21 AM 48.7°F9.3°C 48.5°F9.2°C 99% 2.2 mph SSE3.5 kmh SSE 10.7 mph17.2 kmh 29.03 in983.1 mb 0.14 in3.6 mm 0.00 in0.0 mm 0.58 in14.7 mm
04:20 AM 48.7°F9.3°C 48.5°F9.2°C 99% 2.2 mph SE3.5 kmh SE 10.7 mph17.2 kmh 29.02 in982.7 mb 0.14 in3.6 mm 0.00 in0.0 mm 0.58 in14.7 mm
04:19 AM 48.7°F9.3°C 48.5°F9.2°C 99% 2.2 mph SE3.5 kmh SE 10.7 mph17.2 kmh 29.03 in983.1 mb 0.14 in3.6 mm 0.00 in0.0 mm 0.58 in14.7 mm
04:18 AM 48.9°F9.4°C 48.7°F9.3°C 99% 1.6 mph SE2.6 kmh SE 10.7 mph17.2 kmh 29.02 in982.7 mb 0.14 in3.6 mm 0.60 in15.2 mm 0.58 in14.7 mm
04:17 AM 48.9°F9.4°C 48.7°F9.3°C 99% 2.2 mph SE3.5 kmh SE 11.4 mph18.3 kmh 29.02 in982.7 mb 0.13 in3.3 mm 0.00 in0.0 mm 0.57 in14.5 mm
04:16 AM 48.7°F9.3°C 48.5°F9.2°C 99% 4.5 mph SE7.2 kmh SE 11.4 mph18.3 kmh 29.02 in982.7 mb 0.13 in3.3 mm 0.00 in0.0 mm 0.57 in14.5 mm
04:15 AM 48.7°F9.3°C 48.5°F9.2°C 99% 3.1 mph SE5.0 kmh SE 13.6 mph21.9 kmh 29.02 in982.7 mb 0.13 in3.3 mm 0.00 in0.0 mm 0.57 in14.5 mm
04:14 AM 48.9°F9.4°C 48.7°F9.3°C 99% 6.0 mph SE9.7 kmh SE 13.6 mph21.9 kmh 29.02 in982.7 mb 0.13 in3.3 mm 0.00 in0.0 mm 0.57 in14.5 mm
04:13 AM 48.7°F9.3°C 48.5°F9.2°C 99% 1.6 mph SE2.6 kmh SE 13.6 mph21.9 kmh 29.02 in982.7 mb 0.13 in3.3 mm 0.00 in0.0 mm 0.57 in14.5 mm
04:12 AM 48.7°F9.3°C 48.5°F9.2°C 99% 1.6 mph ESE2.6 kmh ESE 13.6 mph21.9 kmh 29.03 in983.1 mb 0.13 in3.3 mm 0.60 in15.2 mm 0.57 in14.5 mm
04:11 AM 48.9°F9.4°C 48.7°F9.3°C 99% 2.2 mph ESE3.5 kmh ESE 13.6 mph21.9 kmh 29.03 in983.1 mb 0.12 in3.0 mm 0.00 in0.0 mm 0.56 in14.2 mm
04:10 AM 48.7°F9.3°C 48.5°F9.2°C 99% 3.1 mph ESE5.0 kmh ESE 13.6 mph21.9 kmh 29.03 in983.1 mb 0.12 in3.0 mm 0.00 in0.0 mm 0.56 in14.2 mm
04:09 AM 48.7°F9.3°C 48.5°F9.2°C 99% 3.1 mph ESE5.0 kmh ESE 13.6 mph21.9 kmh 29.04 in983.4 mb 0.12 in3.0 mm 0.00 in0.0 mm 0.56 in14.2 mm
04:08 AM 48.7°F9.3°C 48.5°F9.2°C 99% 2.2 mph ESE3.5 kmh ESE 13.6 mph21.9 kmh 29.04 in983.4 mb 0.12 in3.0 mm 0.00 in0.0 mm 0.56 in14.2 mm
04:07 AM 48.7°F9.3°C 48.5°F9.2°C 99% 5.4 mph E8.7 kmh E 13.6 mph21.9 kmh 29.04 in983.4 mb 0.12 in3.0 mm 0.00 in0.0 mm 0.56 in14.2 mm
04:06 AM 48.9°F9.4°C 48.7°F9.3°C 99% 3.8 mph E6.1 kmh E 13.6 mph21.9 kmh 29.03 in983.1 mb 0.12 in3.0 mm 0.60 in15.2 mm 0.56 in14.2 mm
04:05 AM 48.9°F9.4°C 48.7°F9.3°C 99% 8.3 mph E13.4 kmh E 13.6 mph21.9 kmh 29.04 in983.4 mb 0.11 in2.8 mm 0.00 in0.0 mm 0.54 in13.7 mm
04:04 AM 48.9°F9.4°C 48.7°F9.3°C 99% 8.3 mph E13.4 kmh E 13.6 mph21.9 kmh 29.04 in983.4 mb 0.12 in3.0 mm 0.00 in0.0 mm 0.54 in13.7 mm
04:03 AM 48.9°F9.4°C 48.7°F9.3°C 99% 8.3 mph E13.4 kmh E 13.6 mph21.9 kmh 29.04 in983.4 mb 0.12 in3.0 mm 0.00 in0.0 mm 0.54 in13.7 mm
04:02 AM 48.9°F9.4°C 48.7°F9.3°C 99% 8.3 mph E13.4 kmh E 13.6 mph21.9 kmh 29.03 in983.1 mb 0.12 in3.0 mm 0.00 in0.0 mm 0.54 in13.7 mm
04:01 AM 48.9°F9.4°C 48.7°F9.3°C 99% 8.3 mph E13.4 kmh E 13.6 mph21.9 kmh 29.03 in983.1 mb 0.12 in3.0 mm 0.00 in0.0 mm 0.54 in13.7 mm
04:00 AM 48.9°F9.4°C 48.7°F9.3°C 99% 8.3 mph E13.4 kmh E 13.6 mph21.9 kmh 29.03 in983.1 mb 0.12 in3.0 mm 0.00 in0.0 mm 0.54 in13.7 mm
03:59 AM 48.6°F9.2°C 48.3°F9.1°C 99% 3.1 mph E5.0 kmh E 10.7 mph17.2 kmh 29.03 in983.1 mb 0.12 in3.0 mm 0.00 in0.0 mm 0.54 in13.7 mm
03:58 AM 48.7°F9.3°C 48.5°F9.2°C 99% 3.8 mph E6.1 kmh E 9.8 mph15.8 kmh 29.04 in983.4 mb 0.12 in3.0 mm 0.60 in15.2 mm 0.54 in13.7 mm
03:57 AM 48.7°F9.3°C 48.5°F9.2°C 99% 1.6 mph E2.6 kmh E 9.8 mph15.8 kmh 29.03 in983.1 mb 0.11 in2.8 mm 0.00 in0.0 mm 0.53 in13.5 mm
03:56 AM 48.7°F9.3°C 48.5°F9.2°C 99% 4.5 mph SE7.2 kmh SE 13.6 mph21.9 kmh 29.03 in983.1 mb 0.11 in2.8 mm 0.00 in0.0 mm 0.53 in13.5 mm
03:55 AM 48.7°F9.3°C 48.5°F9.2°C 99% 4.5 mph SE7.2 kmh SE 13.6 mph21.9 kmh 29.03 in983.1 mb 0.11 in2.8 mm 0.00 in0.0 mm 0.53 in13.5 mm
03:54 AM 48.7°F9.3°C 48.5°F9.2°C 99% 4.5 mph SE7.2 kmh SE 13.6 mph21.9 kmh 29.03 in983.1 mb 0.11 in2.8 mm 0.00 in0.0 mm 0.53 in13.5 mm
03:53 AM 48.7°F9.3°C 48.5°F9.2°C 99% 2.2 mph SE3.5 kmh SE 13.6 mph21.9 kmh 29.03 in983.1 mb 0.11 in2.8 mm 0.00 in0.0 mm 0.52 in13.2 mm
03:52 AM 48.7°F9.3°C 48.5°F9.2°C 99% 2.2 mph SSE3.5 kmh SSE 13.6 mph21.9 kmh 29.03 in983.1 mb 0.11 in2.8 mm 0.00 in0.0 mm 0.52 in13.2 mm
03:51 AM 48.7°F9.3°C 48.5°F9.2°C 99% 2.2 mph SE3.5 kmh SE 13.6 mph21.9 kmh 29.03 in983.1 mb 0.12 in3.0 mm 0.00 in0.0 mm 0.52 in13.2 mm
03:50 AM 48.7°F9.3°C 48.5°F9.2°C 99% 2.2 mph SE3.5 kmh SE 13.6 mph21.9 kmh 29.03 in983.1 mb 0.12 in3.0 mm 0.00 in0.0 mm 0.52 in13.2 mm
03:49 AM 48.7°F9.3°C 48.5°F9.2°C 99% 2.2 mph SE3.5 kmh SE 13.6 mph21.9 kmh 29.03 in983.1 mb 0.13 in3.3 mm 0.00 in0.0 mm 0.52 in13.2 mm
03:48 AM 48.7°F9.3°C 48.5°F9.2°C 99% 2.2 mph SE3.5 kmh SE 13.6 mph21.9 kmh 29.03 in983.1 mb 0.13 in3.3 mm 0.60 in15.2 mm 0.52 in13.2 mm
03:47 AM 48.7°F9.3°C 48.5°F9.2°C 99% 3.1 mph SE5.0 kmh SE 13.6 mph21.9 kmh 29.02 in982.7 mb 0.12 in3.0 mm 0.00 in0.0 mm 0.51 in13.0 mm
03:46 AM 48.6°F9.2°C 48.3°F9.1°C 99% 6.0 mph SE9.7 kmh SE 13.6 mph21.9 kmh 29.03 in983.1 mb 0.12 in3.0 mm 0.00 in0.0 mm 0.51 in13.0 mm
03:45 AM 48.6°F9.2°C 48.3°F9.1°C 99% 6.0 mph SE9.7 kmh SE 10.7 mph17.2 kmh 29.03 in983.1 mb 0.13 in3.3 mm 0.00 in0.0 mm 0.51 in13.0 mm
03:44 AM 48.7°F9.3°C 48.5°F9.2°C 99% 3.8 mph SE6.1 kmh SE 10.7 mph17.2 kmh 29.03 in983.1 mb 0.13 in3.3 mm 0.00 in0.0 mm 0.50 in12.7 mm
03:43 AM 48.6°F9.2°C 48.3°F9.1°C 99% 2.2 mph SE3.5 kmh SE 10.7 mph17.2 kmh 29.03 in983.1 mb 0.14 in3.6 mm 0.00 in0.0 mm 0.50 in12.7 mm
03:42 AM 48.7°F9.3°C 48.5°F9.2°C 99% 3.1 mph ESE5.0 kmh ESE 10.7 mph17.2 kmh 29.03 in983.1 mb 0.14 in3.6 mm 0.00 in0.0 mm 0.50 in12.7 mm
03:41 AM 48.6°F9.2°C 48.3°F9.1°C 99% 2.2 mph E3.5 kmh E 10.7 mph17.2 kmh 29.02 in982.7 mb 0.14 in3.6 mm 0.00 in0.0 mm 0.50 in12.7 mm
03:40 AM 48.7°F9.3°C 48.5°F9.2°C 99% 3.1 mph E5.0 kmh E 10.7 mph17.2 kmh 29.02 in982.7 mb 0.14 in3.6 mm 0.00 in0.0 mm 0.50 in12.7 mm
03:39 AM 48.7°F9.3°C 48.5°F9.2°C 99% 3.1 mph E5.0 kmh E 10.7 mph17.2 kmh 29.03 in983.1 mb 0.14 in3.6 mm 0.60 in15.2 mm 0.50 in12.7 mm
03:38 AM 48.6°F9.2°C 48.3°F9.1°C 99% 3.8 mph ENE6.1 kmh ENE 10.7 mph17.2 kmh 29.03 in983.1 mb 0.13 in3.3 mm 0.00 in0.0 mm 0.48 in12.2 mm
03:37 AM 48.6°F9.2°C 48.3°F9.1°C 99% 3.1 mph N5.0 kmh N 10.7 mph17.2 kmh 29.02 in982.7 mb 0.13 in3.3 mm 0.00 in0.0 mm 0.48 in12.2 mm
03:36 AM 48.6°F9.2°C 48.3°F9.1°C 99% 1.6 mph NW2.6 kmh NW 10.7 mph17.2 kmh 29.02 in982.7 mb 0.14 in3.6 mm 0.00 in0.0 mm 0.48 in12.2 mm
03:35 AM 48.7°F9.3°C 48.5°F9.2°C 99% 3.1 mph NW5.0 kmh NW 10.7 mph17.2 kmh 29.03 in983.1 mb 0.14 in3.6 mm 0.60 in15.2 mm 0.48 in12.2 mm
03:34 AM 48.7°F9.3°C 48.5°F9.2°C 99% 3.1 mph NNW5.0 kmh NNW 9.2 mph14.8 kmh 29.03 in983.1 mb 0.13 in3.3 mm 0.00 in0.0 mm 0.47 in11.9 mm
03:33 AM 48.7°F9.3°C 48.5°F9.2°C 99% 3.1 mph NE5.0 kmh NE 9.2 mph14.8 kmh 29.03 in983.1 mb 0.13 in3.3 mm 0.60 in15.2 mm 0.47 in11.9 mm
03:32 AM 48.7°F9.3°C 48.5°F9.2°C 99% 3.8 mph E6.1 kmh E 10.7 mph17.2 kmh 29.03 in983.1 mb 0.12 in3.0 mm 0.00 in0.0 mm 0.46 in11.7 mm
03:31 AM 48.7°F9.3°C 48.5°F9.2°C 99% 3.8 mph ESE6.1 kmh ESE 10.7 mph17.2 kmh 29.02 in982.7 mb 0.12 in3.0 mm 0.00 in0.0 mm 0.46 in11.7 mm
03:30 AM 48.7°F9.3°C 48.5°F9.2°C 99% 3.8 mph SE6.1 kmh SE 10.7 mph17.2 kmh 29.03 in983.1 mb 0.12 in3.0 mm 0.00 in0.0 mm 0.46 in11.7 mm
03:29 AM 48.7°F9.3°C 48.5°F9.2°C 99% 0.7 mph SE1.1 kmh SE 10.7 mph17.2 kmh 29.03 in983.1 mb 0.12 in3.0 mm 0.60 in15.2 mm 0.46 in11.7 mm
03:28 AM 48.7°F9.3°C 48.5°F9.2°C 99% 1.6 mph SE2.6 kmh SE 10.7 mph17.2 kmh 29.04 in983.4 mb 0.11 in2.8 mm 0.00 in0.0 mm 0.45 in11.4 mm
03:27 AM 48.7°F9.3°C 48.5°F9.2°C 99% 1.6 mph SE2.6 kmh SE 10.7 mph17.2 kmh 29.04 in983.4 mb 0.11 in2.8 mm 0.00 in0.0 mm 0.45 in11.4 mm
03:26 AM 48.7°F9.3°C 48.5°F9.2°C 99% 3.8 mph SE6.1 kmh SE 10.7 mph17.2 kmh 29.04 in983.4 mb 0.11 in2.8 mm 1.20 in30.5 mm 0.45 in11.4 mm
03:25 AM 48.9°F9.4°C 48.7°F9.3°C 99% 3.1 mph SE5.0 kmh SE 10.7 mph17.2 kmh 29.03 in983.1 mb 0.09 in2.3 mm 0.00 in0.0 mm 0.44 in11.2 mm
03:24 AM 48.7°F9.3°C 48.5°F9.2°C 99% 2.2 mph SE3.5 kmh SE 10.7 mph17.2 kmh 29.03 in983.1 mb 0.09 in2.3 mm 0.00 in0.0 mm 0.44 in11.2 mm
03:23 AM 48.7°F9.3°C 48.5°F9.2°C 99% 4.5 mph SE7.2 kmh SE 10.7 mph17.2 kmh 29.03 in983.1 mb 0.09 in2.3 mm 0.00 in0.0 mm 0.44 in11.2 mm
03:22 AM 48.7°F9.3°C 48.5°F9.2°C 99% 4.5 mph SE7.2 kmh SE 10.7 mph17.2 kmh 29.04 in983.4 mb 0.09 in2.3 mm 0.00 in0.0 mm 0.44 in11.2 mm
03:21 AM 48.9°F9.4°C 48.7°F9.3°C 99% 3.1 mph SE5.0 kmh SE 10.7 mph17.2 kmh 29.05 in983.7 mb 0.09 in2.3 mm 0.00 in0.0 mm 0.44 in11.2 mm
03:20 AM 48.9°F9.4°C 48.7°F9.3°C 99% 3.1 mph SE5.0 kmh SE 10.7 mph17.2 kmh 29.04 in983.4 mb 0.09 in2.3 mm 0.00 in0.0 mm 0.44 in11.2 mm
03:19 AM 48.9°F9.4°C 48.7°F9.3°C 99% 3.1 mph SE5.0 kmh SE 10.7 mph17.2 kmh 29.04 in983.4 mb 0.09 in2.3 mm 0.00 in0.0 mm 0.44 in11.2 mm
03:18 AM 48.9°F9.4°C 48.7°F9.3°C 99% 3.1 mph SE5.0 kmh SE 10.7 mph17.2 kmh 29.04 in983.4 mb 0.09 in2.3 mm 0.00 in0.0 mm 0.44 in11.2 mm
03:17 AM 48.9°F9.4°C 48.7°F9.3°C 99% 3.1 mph SE5.0 kmh SE 10.7 mph17.2 kmh 29.04 in983.4 mb 0.11 in2.8 mm 0.00 in0.0 mm 0.44 in11.2 mm
03:16 AM 48.9°F9.4°C 48.7°F9.3°C 99% 2.2 mph ESE3.5 kmh ESE 10.7 mph17.2 kmh 29.04 in983.4 mb 0.11 in2.8 mm 0.00 in0.0 mm 0.44 in11.2 mm
03:15 AM 48.9°F9.4°C 48.7°F9.3°C 99% 3.1 mph SE5.0 kmh SE 10.7 mph17.2 kmh 29.04 in983.4 mb 0.11 in2.8 mm 0.00 in0.0 mm 0.44 in11.2 mm
03:14 AM 48.9°F9.4°C 48.7°F9.3°C 99% 4.5 mph SE7.2 kmh SE 10.7 mph17.2 kmh 29.04 in983.4 mb 0.11 in2.8 mm 0.00 in0.0 mm 0.44 in11.2 mm
03:13 AM 48.9°F9.4°C 48.7°F9.3°C 99% 5.4 mph SE8.7 kmh SE 10.7 mph17.2 kmh 29.05 in983.7 mb 0.12 in3.0 mm 0.00 in0.0 mm 0.44 in11.2 mm
03:12 AM 48.7°F9.3°C 48.5°F9.2°C 99% 2.2 mph SE3.5 kmh SE 10.7 mph17.2 kmh 29.05 in983.7 mb 0.12 in3.0 mm 0.00 in0.0 mm 0.44 in11.2 mm
03:11 AM 48.7°F9.3°C 48.5°F9.2°C 99% 2.2 mph SE3.5 kmh SE 10.7 mph17.2 kmh 29.05 in983.7 mb 0.12 in3.0 mm 0.00 in0.0 mm 0.44 in11.2 mm
03:10 AM 48.9°F9.4°C 48.7°F9.3°C 99% 3.8 mph SE6.1 kmh SE 10.7 mph17.2 kmh 29.05 in983.7 mb 0.12 in3.0 mm 0.00 in0.0 mm 0.44 in11.2 mm
03:09 AM 49.1°F9.5°C 48.8°F9.3°C 99% 4.5 mph SE7.2 kmh SE 10.7 mph17.2 kmh 29.05 in983.7 mb 0.12 in3.0 mm 0.00 in0.0 mm 0.44 in11.2 mm
03:08 AM 49.1°F9.5°C 48.8°F9.3°C 99% 4.5 mph SE7.2 kmh SE 10.7 mph17.2 kmh 29.05 in983.7 mb 0.14 in3.6 mm 0.00 in0.0 mm 0.44 in11.2 mm
03:07 AM 48.9°F9.4°C 48.7°F9.3°C 99% 4.5 mph SE7.2 kmh SE 10.7 mph17.2 kmh 29.05 in983.7 mb 0.14 in3.6 mm 0.00 in0.0 mm 0.44 in11.2 mm
03:06 AM 48.7°F9.3°C 48.5°F9.2°C 99% 4.5 mph SE7.2 kmh SE 9.2 mph14.8 kmh 29.05 in983.7 mb 0.15 in3.8 mm 0.00 in0.0 mm 0.44 in11.2 mm
03:05 AM 48.9°F9.4°C 48.7°F9.3°C 99% 3.1 mph SE5.0 kmh SE 9.8 mph15.8 kmh 29.05 in983.7 mb 0.15 in3.8 mm 0.00 in0.0 mm 0.43 in10.9 mm
03:04 AM 48.9°F9.4°C 48.7°F9.3°C 99% 3.1 mph ESE5.0 kmh ESE 9.8 mph15.8 kmh 29.05 in983.7 mb 0.22 in5.6 mm 0.00 in0.0 mm 0.43 in10.9 mm
03:03 AM 48.9°F9.4°C 48.7°F9.3°C 99% 3.1 mph ESE5.0 kmh ESE 9.8 mph15.8 kmh 29.05 in983.7 mb 0.22 in5.6 mm 0.00 in0.0 mm 0.43 in10.9 mm
03:02 AM 48.9°F9.4°C 48.7°F9.3°C 99% 3.1 mph ESE5.0 kmh ESE 9.8 mph15.8 kmh 29.05 in983.7 mb 0.22 in5.6 mm 0.00 in0.0 mm 0.43 in10.9 mm
03:01 AM 48.9°F9.4°C 48.7°F9.3°C 99% 3.1 mph SE5.0 kmh SE 10.7 mph17.2 kmh 29.05 in983.7 mb 0.22 in5.6 mm 0.00 in0.0 mm 0.43 in10.9 mm
03:00 AM 48.9°F9.4°C 48.7°F9.3°C 99% 3.1 mph SE5.0 kmh SE 10.7 mph17.2 kmh 29.05 in983.7 mb 0.22 in5.6 mm 0.00 in0.0 mm 0.43 in10.9 mm
02:59 AM 48.9°F9.4°C 48.7°F9.3°C 99% 3.8 mph ESE6.1 kmh ESE 10.7 mph17.2 kmh 29.05 in983.7 mb 0.22 in5.6 mm 0.00 in0.0 mm 0.43 in10.9 mm
02:58 AM 48.9°F9.4°C 48.7°F9.3°C 99% 3.1 mph SE5.0 kmh SE 10.7 mph17.2 kmh 29.05 in983.7 mb 0.22 in5.6 mm 0.00 in0.0 mm 0.43 in10.9 mm
02:57 AM 48.9°F9.4°C 48.7°F9.3°C 99% 5.4 mph SE8.7 kmh SE 10.7 mph17.2 kmh 29.06 in984.1 mb 0.24 in6.1 mm 0.00 in0.0 mm 0.43 in10.9 mm
02:56 AM 49.1°F9.5°C 48.8°F9.3°C 99% 3.1 mph ESE5.0 kmh ESE 10.7 mph17.2 kmh 29.05 in983.7 mb 0.24 in6.1 mm 0.00 in0.0 mm 0.43 in10.9 mm
02:55 AM 49.1°F9.5°C 48.8°F9.3°C 99% 5.4 mph ESE8.7 kmh ESE 10.7 mph17.2 kmh 29.05 in983.7 mb 0.25 in6.4 mm 0.60 in15.2 mm 0.43 in10.9 mm
02:54 AM 49.1°F9.5°C 48.8°F9.3°C 99% 4.5 mph SE7.2 kmh SE 10.7 mph17.2 kmh 29.06 in984.1 mb 0.24 in6.1 mm 0.00 in0.0 mm 0.41 in10.4 mm
02:53 AM 49.1°F9.5°C 48.8°F9.3°C 99% 4.5 mph SE7.2 kmh SE 10.7 mph17.2 kmh 29.05 in983.7 mb 0.24 in6.1 mm 0.00 in0.0 mm 0.41 in10.4 mm
02:52 AM 48.9°F9.4°C 48.7°F9.3°C 99% 5.4 mph ESE8.7 kmh ESE 10.7 mph17.2 kmh 29.06 in984.1 mb 0.24 in6.1 mm 0.00 in0.0 mm 0.40 in10.2 mm
02:51 AM 48.9°F9.4°C 48.7°F9.3°C 99% 4.5 mph ESE7.2 kmh ESE 10.7 mph17.2 kmh 29.05 in983.7 mb 0.24 in6.1 mm 0.00 in0.0 mm 0.40 in10.2 mm
02:50 AM 49.3°F9.6°C 49.0°F9.4°C 99% 1.6 mph SE2.6 kmh SE 10.7 mph17.2 kmh 29.05 in983.7 mb 0.24 in6.1 mm 1.20 in30.5 mm 0.40 in10.2 mm
02:49 AM 48.9°F9.4°C 48.7°F9.3°C 99% 2.2 mph ESE3.5 kmh ESE 10.7 mph17.2 kmh 29.06 in984.1 mb 0.22 in5.6 mm 0.00 in0.0 mm 0.39 in9.9 mm
02:48 AM 49.1°F9.5°C 48.8°F9.3°C 99% 3.1 mph ESE5.0 kmh ESE 15.2 mph24.5 kmh 29.05 in983.7 mb 0.24 in6.1 mm 0.00 in0.0 mm 0.39 in9.9 mm
02:47 AM 49.1°F9.5°C 48.8°F9.3°C 99% 3.1 mph ESE5.0 kmh ESE 15.2 mph24.5 kmh 29.06 in984.1 mb 0.24 in6.1 mm 1.20 in30.5 mm 0.39 in9.9 mm
02:46 AM 49.3°F9.6°C 49.0°F9.4°C 99% 4.5 mph ESE7.2 kmh ESE 15.2 mph24.5 kmh 29.05 in983.7 mb 0.22 in5.6 mm 0.00 in0.0 mm 0.38 in9.7 mm
02:45 AM 49.1°F9.5°C 48.8°F9.3°C 99% 3.1 mph ESE5.0 kmh ESE 15.2 mph24.5 kmh 29.06 in984.1 mb 0.22 in5.6 mm 0.60 in15.2 mm 0.37 in9.4 mm
02:44 AM 49.1°F9.5°C 48.8°F9.3°C 99% 3.8 mph SE6.1 kmh SE 15.2 mph24.5 kmh 29.06 in984.1 mb 0.21 in5.3 mm 0.00 in0.0 mm 0.35 in8.9 mm
02:43 AM 49.1°F9.5°C 48.8°F9.3°C 99% 3.8 mph ESE6.1 kmh ESE 15.2 mph24.5 kmh 29.06 in984.1 mb 0.21 in5.3 mm 0.00 in0.0 mm 0.35 in8.9 mm
02:42 AM 49.1°F9.5°C 48.8°F9.3°C 99% 2.2 mph ESE3.5 kmh ESE 15.2 mph24.5 kmh 29.06 in984.1 mb 0.21 in5.3 mm 0.00 in0.0 mm 0.35 in8.9 mm
02:41 AM 49.3°F9.6°C 49.0°F9.4°C 99% 6.0 mph E9.7 kmh E 15.2 mph24.5 kmh 29.06 in984.1 mb 0.21 in5.3 mm 0.00 in0.0 mm 0.35 in8.9 mm
02:40 AM 49.1°F9.5°C 48.8°F9.3°C 99% 3.8 mph ENE6.1 kmh ENE 15.2 mph24.5 kmh 29.06 in984.1 mb 0.21 in5.3 mm 0.00 in0.0 mm 0.35 in8.9 mm
02:39 AM 49.1°F9.5°C 48.8°F9.3°C 99% 5.4 mph E8.7 kmh E 15.2 mph24.5 kmh 29.06 in984.1 mb 0.22 in5.6 mm 0.00 in0.0 mm 0.35 in8.9 mm
02:38 AM 49.1°F9.5°C 48.8°F9.3°C 99% 6.0 mph E9.7 kmh E 15.2 mph24.5 kmh 29.07 in984.4 mb 0.22 in5.6 mm 0.00 in0.0 mm 0.35 in8.9 mm
02:37 AM 49.3°F9.6°C 49.0°F9.4°C 99% 3.1 mph E5.0 kmh E 9.8 mph15.8 kmh 29.06 in984.1 mb 0.22 in5.6 mm 0.00 in0.0 mm 0.34 in8.6 mm
02:36 AM 49.3°F9.6°C 49.0°F9.4°C 99% 4.5 mph E7.2 kmh E 9.8 mph15.8 kmh 29.06 in984.1 mb 0.22 in5.6 mm 0.00 in0.0 mm 0.34 in8.6 mm
02:35 AM 49.1°F9.5°C 48.8°F9.3°C 99% 4.5 mph E7.2 kmh E 9.8 mph15.8 kmh 29.05 in983.7 mb 0.22 in5.6 mm 0.00 in0.0 mm 0.34 in8.6 mm
02:34 AM 49.3°F9.6°C 49.0°F9.4°C 99% 3.1 mph ENE5.0 kmh ENE 9.8 mph15.8 kmh 29.06 in984.1 mb 0.22 in5.6 mm 0.00 in0.0 mm 0.34 in8.6 mm
02:33 AM 49.1°F9.5°C 48.8°F9.3°C 99% 4.5 mph E7.2 kmh E 9.8 mph15.8 kmh 29.06 in984.1 mb 0.22 in5.6 mm 0.00 in0.0 mm 0.34 in8.6 mm
02:32 AM 49.1°F9.5°C 48.8°F9.3°C 99% 4.5 mph E7.2 kmh E 9.8 mph15.8 kmh 29.06 in984.1 mb 0.24 in6.1 mm 0.00 in0.0 mm 0.34 in8.6 mm
02:31 AM 49.3°F9.6°C 49.0°F9.4°C 99% 4.5 mph SE7.2 kmh SE 10.7 mph17.2 kmh 29.06 in984.1 mb 0.24 in6.1 mm 0.00 in0.0 mm 0.34 in8.6 mm
02:30 AM 49.3°F9.6°C 49.0°F9.4°C 99% 4.5 mph SE7.2 kmh SE 13.0 mph20.9 kmh 29.06 in984.1 mb 0.24 in6.1 mm 0.00 in0.0 mm 0.34 in8.6 mm
02:29 AM 49.1°F9.5°C 48.8°F9.3°C 99% 3.8 mph SE6.1 kmh SE 13.0 mph20.9 kmh 29.06 in984.1 mb 0.25 in6.4 mm 0.00 in0.0 mm 0.34 in8.6 mm
02:28 AM 49.3°F9.6°C 49.0°F9.4°C 99% 3.8 mph SE6.1 kmh SE 13.0 mph20.9 kmh 29.06 in984.1 mb 0.25 in6.4 mm 0.00 in0.0 mm 0.34 in8.6 mm
02:27 AM 49.1°F9.5°C 48.8°F9.3°C 99% 3.1 mph SE5.0 kmh SE 13.0 mph20.9 kmh 29.06 in984.1 mb 0.25 in6.4 mm 0.00 in0.0 mm 0.34 in8.6 mm
02:26 AM 49.1°F9.5°C 48.8°F9.3°C 99% 3.8 mph SE6.1 kmh SE 13.0 mph20.9 kmh 29.06 in984.1 mb 0.25 in6.4 mm 0.00 in0.0 mm 0.34 in8.6 mm
02:25 AM 49.3°F9.6°C 49.0°F9.4°C 99% 3.8 mph SSE6.1 kmh SSE 13.0 mph20.9 kmh 29.06 in984.1 mb 0.26 in6.6 mm 0.00 in0.0 mm 0.34 in8.6 mm
02:24 AM 49.3°F9.6°C 49.0°F9.4°C 99% 4.5 mph SE7.2 kmh SE 13.0 mph20.9 kmh 29.06 in984.1 mb 0.26 in6.6 mm 0.00 in0.0 mm 0.34 in8.6 mm
02:23 AM 49.1°F9.5°C 48.8°F9.3°C 99% 3.1 mph SE5.0 kmh SE 13.0 mph20.9 kmh 29.06 in984.1 mb 0.26 in6.6 mm 0.00 in0.0 mm 0.34 in8.6 mm
02:22 AM 49.1°F9.5°C 48.8°F9.3°C 99% 3.1 mph ESE5.0 kmh ESE 13.0 mph20.9 kmh 29.06 in984.1 mb 0.27 in6.9 mm 0.00 in0.0 mm 0.34 in8.6 mm
02:21 AM 49.1°F9.5°C 48.8°F9.3°C 99% 6.9 mph ESE11.1 kmh ESE 13.0 mph20.9 kmh 29.06 in984.1 mb 0.27 in6.9 mm 0.00 in0.0 mm 0.34 in8.6 mm
02:20 AM 49.1°F9.5°C 48.8°F9.3°C 99% 4.5 mph E7.2 kmh E 13.0 mph20.9 kmh 29.06 in984.1 mb 0.27 in6.9 mm 0.00 in0.0 mm 0.34 in8.6 mm
02:19 AM 49.1°F9.5°C 48.8°F9.3°C 99% 2.2 mph E3.5 kmh E 12.1 mph19.5 kmh 29.06 in984.1 mb 0.27 in6.9 mm 0.00 in0.0 mm 0.34 in8.6 mm
02:18 AM 49.1°F9.5°C 48.8°F9.3°C 99% 3.8 mph E6.1 kmh E 12.1 mph19.5 kmh 29.06 in984.1 mb 0.27 in6.9 mm 0.60 in15.2 mm 0.34 in8.6 mm
02:17 AM 49.1°F9.5°C 48.8°F9.3°C 99% 3.8 mph E6.1 kmh E 12.1 mph19.5 kmh 29.05 in983.7 mb 0.26 in6.6 mm 0.00 in0.0 mm 0.33 in8.4 mm
02:16 AM 49.1°F9.5°C 48.8°F9.3°C 99% 2.2 mph E3.5 kmh E 9.2 mph14.8 kmh 29.06 in984.1 mb 0.26 in6.6 mm 0.00 in0.0 mm 0.33 in8.4 mm
02:15 AM 49.1°F9.5°C 48.8°F9.3°C 99% 2.2 mph E3.5 kmh E 9.2 mph14.8 kmh 29.06 in984.1 mb 0.26 in6.6 mm 0.00 in0.0 mm 0.33 in8.4 mm
02:14 AM 49.1°F9.5°C 48.8°F9.3°C 99% 6.0 mph E9.7 kmh E 9.2 mph14.8 kmh 29.06 in984.1 mb 0.26 in6.6 mm 0.60 in15.2 mm 0.33 in8.4 mm
02:13 AM 49.3°F9.6°C 49.0°F9.4°C 99% 2.2 mph ESE3.5 kmh ESE 9.2 mph14.8 kmh 29.06 in984.1 mb 0.25 in6.4 mm 0.00 in0.0 mm 0.32 in8.1 mm
02:12 AM 49.1°F9.5°C 48.8°F9.3°C 99% 3.1 mph SE5.0 kmh SE 9.2 mph14.8 kmh 29.06 in984.1 mb 0.25 in6.4 mm 0.00 in0.0 mm 0.32 in8.1 mm
02:11 AM 49.3°F9.6°C 49.0°F9.4°C 99% 3.1 mph SE5.0 kmh SE 9.2 mph14.8 kmh 29.06 in984.1 mb 0.25 in6.4 mm 0.00 in0.0 mm 0.32 in8.1 mm
02:10 AM 49.1°F9.5°C 48.8°F9.3°C 99% 4.5 mph SSE7.2 kmh SSE 9.2 mph14.8 kmh 29.06 in984.1 mb 0.25 in6.4 mm 1.80 in45.7 mm 0.32 in8.1 mm
02:09 AM 49.3°F9.6°C 49.0°F9.4°C 99% 3.8 mph S6.1 kmh S 9.2 mph14.8 kmh 29.06 in984.1 mb 0.22 in5.6 mm 0.00 in0.0 mm 0.30 in7.6 mm
02:08 AM 49.3°F9.6°C 49.0°F9.4°C 99% 2.2 mph S3.5 kmh S 9.2 mph14.8 kmh 29.06 in984.1 mb 0.22 in5.6 mm 0.00 in0.0 mm 0.30 in7.6 mm
02:07 AM 49.3°F9.6°C 49.0°F9.4°C 99% 3.1 mph S5.0 kmh S 9.2 mph14.8 kmh 29.07 in984.4 mb 0.22 in5.6 mm 0.60 in15.2 mm 0.28 in7.1 mm
02:06 AM 49.3°F9.6°C 49.0°F9.4°C 99% 5.4 mph S8.7 kmh S 9.2 mph14.8 kmh 29.07 in984.4 mb 0.21 in5.3 mm 4.20 in106.7 mm 0.27 in6.9 mm
02:05 AM 49.3°F9.6°C 49.0°F9.4°C 99% 3.1 mph S5.0 kmh S 9.2 mph14.8 kmh 29.07 in984.4 mb 0.14 in3.6 mm 0.00 in0.0 mm 0.20 in5.1 mm
02:04 AM 49.3°F9.6°C 49.0°F9.4°C 99% 3.1 mph S5.0 kmh S 9.2 mph14.8 kmh 29.07 in984.4 mb 0.14 in3.6 mm 0.00 in0.0 mm 0.20 in5.1 mm
02:03 AM 49.3°F9.6°C 49.0°F9.4°C 99% 3.1 mph S5.0 kmh S 9.2 mph14.8 kmh 29.07 in984.4 mb 0.14 in3.6 mm 0.00 in0.0 mm 0.20 in5.1 mm
02:02 AM 49.3°F9.6°C 49.0°F9.4°C 99% 3.1 mph SSE5.0 kmh SSE 9.2 mph14.8 kmh 29.07 in984.4 mb 0.14 in3.6 mm 0.00 in0.0 mm 0.20 in5.1 mm
02:01 AM 49.3°F9.6°C 49.0°F9.4°C 99% 3.1 mph SE5.0 kmh SE 9.2 mph14.8 kmh 29.07 in984.4 mb 0.14 in3.6 mm 0.00 in0.0 mm 0.20 in5.1 mm
02:00 AM 49.3°F9.6°C 49.0°F9.4°C 99% 3.1 mph SE5.0 kmh SE 9.2 mph14.8 kmh 29.07 in984.4 mb 0.14 in3.6 mm 0.00 in0.0 mm 0.20 in5.1 mm
01:59 AM 49.3°F9.6°C 49.0°F9.4°C 99% 3.1 mph E5.0 kmh E 12.1 mph19.5 kmh 29.07 in984.4 mb 0.14 in3.6 mm 0.00 in0.0 mm 0.20 in5.1 mm
01:58 AM 49.5°F9.7°C 49.2°F9.6°C 99% 1.6 mph E2.6 kmh E 12.1 mph19.5 kmh 29.07 in984.4 mb 0.14 in3.6 mm 0.60 in15.2 mm 0.20 in5.1 mm
01:57 AM 49.5°F9.7°C 49.2°F9.6°C 99% 3.8 mph E6.1 kmh E 12.1 mph19.5 kmh 29.07 in984.4 mb 0.13 in3.3 mm 0.00 in0.0 mm 0.19 in4.8 mm
01:56 AM 49.5°F9.7°C 49.2°F9.6°C 99% 1.6 mph E2.6 kmh E 12.1 mph19.5 kmh 29.07 in984.4 mb 0.13 in3.3 mm 0.60 in15.2 mm 0.19 in4.8 mm
01:55 AM 49.5°F9.7°C 49.2°F9.6°C 99% 1.6 mph E2.6 kmh E 12.1 mph19.5 kmh 29.07 in984.4 mb 0.12 in3.0 mm 0.00 in0.0 mm 0.18 in4.6 mm
01:54 AM 49.5°F9.7°C 49.2°F9.6°C 99% 4.5 mph E7.2 kmh E 12.1 mph19.5 kmh 29.07 in984.4 mb 0.12 in3.0 mm 0.00 in0.0 mm 0.18 in4.6 mm
01:53 AM 49.5°F9.7°C 49.2°F9.6°C 99% 4.5 mph ESE7.2 kmh ESE 12.1 mph19.5 kmh 29.07 in984.4 mb 0.12 in3.0 mm 0.60 in15.2 mm 0.18 in4.6 mm
01:52 AM 49.6°F9.8°C 49.4°F9.7°C 99% 4.5 mph SE7.2 kmh SE 12.1 mph19.5 kmh 29.06 in984.1 mb 0.11 in2.8 mm 0.00 in0.0 mm 0.17 in4.3 mm
01:51 AM 49.6°F9.8°C 49.4°F9.7°C 99% 4.5 mph SE7.2 kmh SE 12.1 mph19.5 kmh 29.07 in984.4 mb 0.11 in2.8 mm 0.00 in0.0 mm 0.17 in4.3 mm
01:50 AM 49.5°F9.7°C 49.2°F9.6°C 99% 3.8 mph SSE6.1 kmh SSE 12.1 mph19.5 kmh 29.07 in984.4 mb 0.11 in2.8 mm 0.00 in0.0 mm 0.17 in4.3 mm
01:49 AM 49.6°F9.8°C 49.4°F9.7°C 99% 4.5 mph S7.2 kmh S 9.2 mph14.8 kmh 29.07 in984.4 mb 0.11 in2.8 mm 1.20 in30.5 mm 0.17 in4.3 mm
01:48 AM 49.6°F9.8°C 49.4°F9.7°C 99% 4.5 mph S7.2 kmh S 9.8 mph15.8 kmh 29.07 in984.4 mb 0.09 in2.3 mm 0.00 in0.0 mm 0.15 in3.8 mm
01:47 AM 49.6°F9.8°C 49.4°F9.7°C 99% 2.2 mph S3.5 kmh S 9.8 mph15.8 kmh 29.07 in984.4 mb 0.09 in2.3 mm 0.00 in0.0 mm 0.15 in3.8 mm
01:46 AM 49.6°F9.8°C 49.4°F9.7°C 99% 1.6 mph S2.6 kmh S 9.8 mph15.8 kmh 29.06 in984.1 mb 0.09 in2.3 mm 0.60 in15.2 mm 0.15 in3.8 mm
01:45 AM 49.8°F9.9°C 49.6°F9.8°C 99% 3.1 mph SSE5.0 kmh SSE 9.8 mph15.8 kmh 29.07 in984.4 mb 0.08 in2.0 mm 0.00 in0.0 mm 0.14 in3.6 mm
01:44 AM 49.8°F9.9°C 49.6°F9.8°C 99% 3.1 mph SSE5.0 kmh SSE 9.8 mph15.8 kmh 29.07 in984.4 mb 0.08 in2.0 mm 0.00 in0.0 mm 0.14 in3.6 mm
01:43 AM 49.8°F9.9°C 49.6°F9.8°C 99% 3.1 mph SSE5.0 kmh SSE 9.8 mph15.8 kmh 29.07 in984.4 mb 0.08 in2.0 mm 0.00 in0.0 mm 0.14 in3.6 mm
01:42 AM 49.8°F9.9°C 49.6°F9.8°C 99% 3.1 mph SSE5.0 kmh SSE 9.8 mph15.8 kmh 29.07 in984.4 mb 0.08 in2.0 mm 0.00 in0.0 mm 0.14 in3.6 mm
01:41 AM 49.8°F9.9°C 49.6°F9.8°C 99% 3.1 mph SSE5.0 kmh SSE 9.8 mph15.8 kmh 29.08 in984.8 mb 0.08 in2.0 mm 0.00 in0.0 mm 0.14 in3.6 mm
01:40 AM 49.8°F9.9°C 49.6°F9.8°C 99% 3.1 mph SE5.0 kmh SE 9.8 mph15.8 kmh 29.09 in985.1 mb 0.08 in2.0 mm 0.60 in15.2 mm 0.14 in3.6 mm
01:39 AM 49.8°F9.9°C 49.6°F9.8°C 99% 3.1 mph SE5.0 kmh SE 9.8 mph15.8 kmh 29.09 in985.1 mb 0.07 in1.8 mm 0.00 in0.0 mm 0.13 in3.3 mm
01:38 AM 49.8°F9.9°C 49.6°F9.8°C 99% 5.4 mph SE8.7 kmh SE 9.8 mph15.8 kmh 29.09 in985.1 mb 0.07 in1.8 mm 0.00 in0.0 mm 0.13 in3.3 mm
01:37 AM 50.0°F10.0°C 49.7°F9.8°C 99% 3.1 mph SE5.0 kmh SE 9.8 mph15.8 kmh 29.10 in985.4 mb 0.07 in1.8 mm 0.00 in0.0 mm 0.12 in3.0 mm
01:36 AM 50.0°F10.0°C 49.7°F9.8°C 99% 3.1 mph SSE5.0 kmh SSE 9.8 mph15.8 kmh 29.10 in985.4 mb 0.07 in1.8 mm 0.00 in0.0 mm 0.12 in3.0 mm
01:35 AM 50.0°F10.0°C 49.7°F9.8°C 99% 3.1 mph SSE5.0 kmh SSE 9.8 mph15.8 kmh 29.10 in985.4 mb 0.07 in1.8 mm 0.00 in0.0 mm 0.12 in3.0 mm
01:34 AM 49.8°F9.9°C 49.6°F9.8°C 99% 3.1 mph SE5.0 kmh SE 9.8 mph15.8 kmh 29.10 in985.4 mb 0.07 in1.8 mm 0.60 in15.2 mm 0.12 in3.0 mm
01:33 AM 49.8°F9.9°C 49.6°F9.8°C 99% 3.1 mph ESE5.0 kmh ESE 9.8 mph15.8 kmh 29.10 in985.4 mb 0.06 in1.5 mm 0.00 in0.0 mm 0.11 in2.8 mm
01:32 AM 50.0°F10.0°C 49.7°F9.8°C 99% 4.5 mph ESE7.2 kmh ESE 9.8 mph15.8 kmh 29.11 in985.8 mb 0.06 in1.5 mm 0.00 in0.0 mm 0.11 in2.8 mm
01:31 AM 50.0°F10.0°C 49.7°F9.8°C 99% 4.5 mph ESE7.2 kmh ESE 9.8 mph15.8 kmh 29.11 in985.8 mb 0.06 in1.5 mm 0.00 in0.0 mm 0.11 in2.8 mm
01:30 AM 49.8°F9.9°C 49.6°F9.8°C 99% 6.0 mph SE9.7 kmh SE 9.8 mph15.8 kmh 29.11 in985.8 mb 0.06 in1.5 mm 0.60 in15.2 mm 0.11 in2.8 mm
01:29 AM 50.0°F10.0°C 49.7°F9.8°C 99% 3.1 mph SE5.0 kmh SE 8.3 mph13.4 kmh 29.11 in985.8 mb 0.05 in1.3 mm 0.00 in0.0 mm 0.09 in2.3 mm
01:28 AM 50.0°F10.0°C 49.7°F9.8°C 99% 3.1 mph ESE5.0 kmh ESE 8.3 mph13.4 kmh 29.11 in985.8 mb 0.05 in1.3 mm 0.00 in0.0 mm 0.09 in2.3 mm
01:27 AM 50.0°F10.0°C 49.7°F9.8°C 99% 2.2 mph ESE3.5 kmh ESE 8.3 mph13.4 kmh 29.11 in985.8 mb 0.05 in1.3 mm 0.00 in0.0 mm 0.09 in2.3 mm
01:26 AM 50.0°F10.0°C 49.7°F9.8°C 99% 4.5 mph ESE7.2 kmh ESE 8.3 mph13.4 kmh 29.11 in985.8 mb 0.05 in1.3 mm 0.60 in15.2 mm 0.09 in2.3 mm
01:25 AM 50.0°F10.0°C 49.7°F9.8°C 99% 3.1 mph ESE5.0 kmh ESE 8.3 mph13.4 kmh 29.10 in985.4 mb 0.04 in1.0 mm 0.00 in0.0 mm 0.08 in2.0 mm
01:24 AM 50.0°F10.0°C 49.7°F9.8°C 99% 4.5 mph SE7.2 kmh SE 8.3 mph13.4 kmh 29.11 in985.8 mb 0.04 in1.0 mm 0.00 in0.0 mm 0.08 in2.0 mm
01:23 AM 50.0°F10.0°C 49.7°F9.8°C 99% 3.8 mph SE6.1 kmh SE 9.2 mph14.8 kmh 29.11 in985.8 mb 0.04 in1.0 mm 1.20 in30.5 mm 0.08 in2.0 mm
01:22 AM 50.0°F10.0°C 49.7°F9.8°C 99% 3.1 mph SE5.0 kmh SE 9.2 mph14.8 kmh 29.11 in985.8 mb 0.02 in0.5 mm 0.00 in0.0 mm 0.07 in1.8 mm
01:21 AM 50.0°F10.0°C 49.7°F9.8°C 99% 3.1 mph ESE5.0 kmh ESE 9.2 mph14.8 kmh 29.11 in985.8 mb 0.02 in0.5 mm 0.00 in0.0 mm 0.07 in1.8 mm
01:20 AM 50.0°F10.0°C 49.7°F9.8°C 99% 1.6 mph ESE2.6 kmh ESE 9.2 mph14.8 kmh 29.11 in985.8 mb 0.02 in0.5 mm 0.00 in0.0 mm 0.07 in1.8 mm
01:19 AM 50.2°F10.1°C 49.9°F9.9°C 99% 2.2 mph ESE3.5 kmh ESE 9.2 mph14.8 kmh 29.11 in985.8 mb 0.02 in0.5 mm 0.00 in0.0 mm 0.07 in1.8 mm
01:18 AM 50.2°F10.1°C 49.9°F9.9°C 99% 2.2 mph ESE3.5 kmh ESE 9.2 mph14.8 kmh 29.12 in986.1 mb 0.04 in1.0 mm 0.00 in0.0 mm 0.07 in1.8 mm
01:17 AM 50.2°F10.1°C 49.9°F9.9°C 99% 3.8 mph ESE6.1 kmh ESE 9.2 mph14.8 kmh 29.11 in985.8 mb 0.04 in1.0 mm 0.00 in0.0 mm 0.07 in1.8 mm
01:16 AM 50.2°F10.1°C 49.9°F9.9°C 99% 2.2 mph E3.5 kmh E 9.2 mph14.8 kmh 29.11 in985.8 mb 0.04 in1.0 mm 0.00 in0.0 mm 0.07 in1.8 mm
01:15 AM 50.2°F10.1°C 49.9°F9.9°C 99% 2.2 mph E3.5 kmh E 9.2 mph14.8 kmh 29.11 in985.8 mb 0.04 in1.0 mm 0.00 in0.0 mm 0.07 in1.8 mm
01:14 AM 50.2°F10.1°C 49.9°F9.9°C 99% 2.2 mph E3.5 kmh E 9.2 mph14.8 kmh 29.11 in985.8 mb 0.04 in1.0 mm 0.00 in0.0 mm 0.07 in1.8 mm
01:13 AM 50.2°F10.1°C 49.9°F9.9°C 99% 3.8 mph E6.1 kmh E 8.3 mph13.4 kmh 29.11 in985.8 mb 0.05 in1.3 mm 0.00 in0.0 mm 0.07 in1.8 mm
01:12 AM 50.2°F10.1°C 49.9°F9.9°C 99% 3.8 mph E6.1 kmh E 8.3 mph13.4 kmh 29.11 in985.8 mb 0.05 in1.3 mm 0.00 in0.0 mm 0.07 in1.8 mm
01:11 AM 50.2°F10.1°C 49.9°F9.9°C 99% 3.8 mph E6.1 kmh E 8.3 mph13.4 kmh 29.12 in986.1 mb 0.05 in1.3 mm 0.00 in0.0 mm 0.07 in1.8 mm
01:10 AM 50.2°F10.1°C 49.9°F9.9°C 99% 3.8 mph E6.1 kmh E 8.3 mph13.4 kmh 29.12 in986.1 mb 0.05 in1.3 mm 0.00 in0.0 mm 0.07 in1.8 mm
01:09 AM 50.2°F10.1°C 49.9°F9.9°C 99% 3.8 mph E6.1 kmh E 10.7 mph17.2 kmh 29.12 in986.1 mb 0.05 in1.3 mm 0.60 in15.2 mm 0.07 in1.8 mm
01:08 AM 50.4°F10.2°C 50.1°F10.1°C 99% 2.2 mph E3.5 kmh E 10.7 mph17.2 kmh 29.11 in985.8 mb 0.04 in1.0 mm 0.00 in0.0 mm 0.06 in1.5 mm
01:07 AM 50.4°F10.2°C 50.1°F10.1°C 99% 2.2 mph E3.5 kmh E 10.7 mph17.2 kmh 29.12 in986.1 mb 0.04 in1.0 mm 0.00 in0.0 mm 0.06 in1.5 mm
01:06 AM 50.4°F10.2°C 50.1°F10.1°C 99% 2.2 mph E3.5 kmh E 10.7 mph17.2 kmh 29.11 in985.8 mb 0.04 in1.0 mm 0.00 in0.0 mm 0.06 in1.5 mm
01:05 AM 50.4°F10.2°C 50.1°F10.1°C 99% 2.2 mph E3.5 kmh E 10.7 mph17.2 kmh 29.12 in986.1 mb 0.04 in1.0 mm 0.00 in0.0 mm 0.06 in1.5 mm
01:04 AM 50.4°F10.2°C 50.1°F10.1°C 99% 2.2 mph ESE3.5 kmh ESE 10.7 mph17.2 kmh 29.12 in986.1 mb 0.06 in1.5 mm 0.00 in0.0 mm 0.06 in1.5 mm
01:03 AM 50.4°F10.2°C 50.1°F10.1°C 99% 2.2 mph ESE3.5 kmh ESE 10.7 mph17.2 kmh 29.12 in986.1 mb 0.06 in1.5 mm 0.00 in0.0 mm 0.06 in1.5 mm
01:02 AM 50.4°F10.2°C 50.1°F10.1°C 99% 2.2 mph ESE3.5 kmh ESE 10.7 mph17.2 kmh 29.12 in986.1 mb 0.06 in1.5 mm 0.00 in0.0 mm 0.06 in1.5 mm
01:01 AM 50.4°F10.2°C 50.1°F10.1°C 99% 2.2 mph SE3.5 kmh SE 10.7 mph17.2 kmh 29.13 in986.5 mb 0.06 in1.5 mm 0.00 in0.0 mm 0.06 in1.5 mm
01:00 AM 50.4°F10.2°C 50.1°F10.1°C 99% 2.2 mph SE3.5 kmh SE 10.7 mph17.2 kmh 29.12 in986.1 mb 0.06 in1.5 mm 0.00 in0.0 mm 0.06 in1.5 mm
12:59 AM 50.4°F10.2°C 50.1°F10.1°C 99% 6.0 mph SE9.7 kmh SE 10.7 mph17.2 kmh 29.12 in986.1 mb 0.06 in1.5 mm 0.00 in0.0 mm 0.06 in1.5 mm
12:58 AM 50.4°F10.2°C 50.1°F10.1°C 99% 6.0 mph SSE9.7 kmh SSE 10.7 mph17.2 kmh 29.12 in986.1 mb 0.06 in1.5 mm 0.00 in0.0 mm 0.06 in1.5 mm
12:57 AM 50.4°F10.2°C 50.1°F10.1°C 99% 1.6 mph SSE2.6 kmh SSE 9.8 mph15.8 kmh 29.12 in986.1 mb 0.06 in1.5 mm 0.00 in0.0 mm 0.06 in1.5 mm
12:56 AM 50.4°F10.2°C 50.1°F10.1°C 99% 3.1 mph SSE5.0 kmh SSE 9.8 mph15.8 kmh 29.13 in986.5 mb 0.06 in1.5 mm 0.00 in0.0 mm 0.06 in1.5 mm
12:55 AM 50.4°F10.2°C 50.1°F10.1°C 99% 4.5 mph SE7.2 kmh SE 9.8 mph15.8 kmh 29.12 in986.1 mb 0.07 in1.8 mm 0.00 in0.0 mm 0.06 in1.5 mm
12:54 AM 50.4°F10.2°C 50.1°F10.1°C 99% 4.5 mph SE7.2 kmh SE 9.2 mph14.8 kmh 29.12 in986.1 mb 0.08 in2.0 mm 0.00 in0.0 mm 0.06 in1.5 mm
12:53 AM 50.4°F10.2°C 50.1°F10.1°C 99% 1.6 mph SE2.6 kmh SE 9.2 mph14.8 kmh 29.12 in986.1 mb 0.08 in2.0 mm 0.00 in0.0 mm 0.06 in1.5 mm
12:52 AM 50.5°F10.3°C 50.3°F10.2°C 99% 2.2 mph SE3.5 kmh SE 9.2 mph14.8 kmh 29.12 in986.1 mb 0.08 in2.0 mm 0.00 in0.0 mm 0.06 in1.5 mm
12:51 AM 50.5°F10.3°C 50.3°F10.2°C 99% 2.2 mph SE3.5 kmh SE 9.2 mph14.8 kmh 29.12 in986.1 mb 0.08 in2.0 mm 0.00 in0.0 mm 0.06 in1.5 mm
12:50 AM 50.4°F10.2°C 50.1°F10.1°C 99% 4.5 mph ESE7.2 kmh ESE 9.2 mph14.8 kmh 29.12 in986.1 mb 0.08 in2.0 mm 0.00 in0.0 mm 0.06 in1.5 mm
12:49 AM 50.5°F10.3°C 50.3°F10.2°C 99% 3.1 mph ESE5.0 kmh ESE 9.2 mph14.8 kmh 29.12 in986.1 mb 0.08 in2.0 mm 0.00 in0.0 mm 0.06 in1.5 mm
12:48 AM 50.4°F10.2°C 50.1°F10.1°C 99% 2.2 mph ESE3.5 kmh ESE 9.2 mph14.8 kmh 29.12 in986.1 mb 0.08 in2.0 mm 0.00 in0.0 mm 0.06 in1.5 mm
12:47 AM 50.5°F10.3°C 50.3°F10.2°C 99% 3.1 mph ESE5.0 kmh ESE 9.2 mph14.8 kmh 29.12 in986.1 mb 0.08 in2.0 mm 0.00 in0.0 mm 0.06 in1.5 mm
12:46 AM 50.5°F10.3°C 50.3°F10.2°C 99% 2.2 mph SE3.5 kmh SE 10.7 mph17.2 kmh 29.13 in986.5 mb 0.08 in2.0 mm 0.00 in0.0 mm 0.06 in1.5 mm
12:45 AM 50.5°F10.3°C 50.3°F10.2°C 99% 2.2 mph SE3.5 kmh SE 10.7 mph17.2 kmh 29.13 in986.5 mb 0.08 in2.0 mm 0.00 in0.0 mm 0.06 in1.5 mm
12:44 AM 50.5°F10.3°C 50.3°F10.2°C 99% 2.2 mph SE3.5 kmh SE 10.7 mph17.2 kmh 29.13 in986.5 mb 0.08 in2.0 mm 0.00 in0.0 mm 0.06 in1.5 mm
12:43 AM 50.5°F10.3°C 50.3°F10.2°C 99% 3.1 mph SE5.0 kmh SE 10.7 mph17.2 kmh 29.13 in986.5 mb 0.08 in2.0 mm 0.00 in0.0 mm 0.06 in1.5 mm
12:42 AM 50.5°F10.3°C 50.3°F10.2°C 99% 0.7 mph SE1.1 kmh SE 10.7 mph17.2 kmh 29.13 in986.5 mb 0.09 in2.3 mm 0.00 in0.0 mm 0.06 in1.5 mm
12:41 AM 50.5°F10.3°C 50.3°F10.2°C 99% 3.8 mph SE6.1 kmh SE 10.7 mph17.2 kmh 29.13 in986.5 mb 0.09 in2.3 mm 0.00 in0.0 mm 0.06 in1.5 mm
12:40 AM 50.5°F10.3°C 50.3°F10.2°C 99% 3.8 mph SSE6.1 kmh SSE 10.7 mph17.2 kmh 29.13 in986.5 mb 0.09 in2.3 mm 0.00 in0.0 mm 0.06 in1.5 mm
12:39 AM 50.5°F10.3°C 50.3°F10.2°C 99% 4.5 mph SE7.2 kmh SE 10.7 mph17.2 kmh 29.13 in986.5 mb 0.09 in2.3 mm 0.60 in15.2 mm 0.06 in1.5 mm
12:38 AM 50.5°F10.3°C 50.3°F10.2°C 99% 1.6 mph SE2.6 kmh SE 10.7 mph17.2 kmh 29.14 in986.8 mb 0.08 in2.0 mm 0.00 in0.0 mm 0.05 in1.3 mm
12:37 AM 50.7°F10.4°C 50.5°F10.3°C 99% 2.2 mph SE3.5 kmh SE 10.7 mph17.2 kmh 29.13 in986.5 mb 0.09 in2.3 mm 0.00 in0.0 mm 0.05 in1.3 mm
12:36 AM 50.7°F10.4°C 50.5°F10.3°C 99% 3.8 mph ESE6.1 kmh ESE 10.7 mph17.2 kmh 29.13 in986.5 mb 0.09 in2.3 mm 0.00 in0.0 mm 0.05 in1.3 mm
12:35 AM 50.5°F10.3°C 50.3°F10.2°C 99% 2.2 mph E3.5 kmh E 10.7 mph17.2 kmh 29.13 in986.5 mb 0.09 in2.3 mm 0.00 in0.0 mm 0.05 in1.3 mm
12:34 AM 50.7°F10.4°C 50.5°F10.3°C 99% 2.2 mph E3.5 kmh E 10.7 mph17.2 kmh 29.12 in986.1 mb 0.09 in2.3 mm 0.00 in0.0 mm 0.05 in1.3 mm
12:33 AM 50.7°F10.4°C 50.5°F10.3°C 99% 3.1 mph E5.0 kmh E 10.7 mph17.2 kmh 29.12 in986.1 mb 0.09 in2.3 mm 0.00 in0.0 mm 0.05 in1.3 mm
12:32 AM 50.9°F10.5°C 50.6°F10.3°C 99% 3.1 mph ENE5.0 kmh ENE 10.7 mph17.2 kmh 29.12 in986.1 mb 0.09 in2.3 mm 0.00 in0.0 mm 0.05 in1.3 mm
12:31 AM 50.9°F10.5°C 50.6°F10.3°C 99% 3.1 mph ENE5.0 kmh ENE 10.7 mph17.2 kmh 29.12 in986.1 mb 0.09 in2.3 mm 0.00 in0.0 mm 0.05 in1.3 mm
12:30 AM 50.9°F10.5°C 50.6°F10.3°C 99% 3.1 mph E5.0 kmh E 10.7 mph17.2 kmh 29.12 in986.1 mb 0.09 in2.3 mm 0.00 in0.0 mm 0.05 in1.3 mm
12:29 AM 50.7°F10.4°C 50.5°F10.3°C 99% 3.8 mph SE6.1 kmh SE 10.7 mph17.2 kmh 29.13 in986.5 mb 0.09 in2.3 mm 0.00 in0.0 mm 0.05 in1.3 mm
12:28 AM 50.9°F10.5°C 50.6°F10.3°C 99% 2.2 mph S3.5 kmh S 10.7 mph17.2 kmh 29.13 in986.5 mb 0.09 in2.3 mm 0.00 in0.0 mm 0.05 in1.3 mm
12:27 AM 50.7°F10.4°C 50.5°F10.3°C 99% 2.2 mph S3.5 kmh S 10.7 mph17.2 kmh 29.14 in986.8 mb 0.09 in2.3 mm 0.00 in0.0 mm 0.05 in1.3 mm
12:26 AM 50.9°F10.5°C 50.6°F10.3°C 99% 3.8 mph S6.1 kmh S 10.7 mph17.2 kmh 29.14 in986.8 mb 0.09 in2.3 mm 0.00 in0.0 mm 0.05 in1.3 mm
12:25 AM 50.9°F10.5°C 50.6°F10.3°C 99% 1.6 mph SSE2.6 kmh SSE 9.8 mph15.8 kmh 29.15 in987.1 mb 0.09 in2.3 mm 0.00 in0.0 mm 0.05 in1.3 mm
12:24 AM 50.9°F10.5°C 50.6°F10.3°C 99% 1.6 mph SE2.6 kmh SE 9.8 mph15.8 kmh 29.15 in987.1 mb 0.09 in2.3 mm 0.00 in0.0 mm 0.05 in1.3 mm
12:23 AM 50.9°F10.5°C 50.6°F10.3°C 99% 1.6 mph SE2.6 kmh SE 9.8 mph15.8 kmh 29.15 in987.1 mb 0.09 in2.3 mm 0.00 in0.0 mm 0.05 in1.3 mm
12:22 AM 50.9°F10.5°C 50.6°F10.3°C 99% 4.5 mph SE7.2 kmh SE 9.8 mph15.8 kmh 29.15 in987.1 mb 0.09 in2.3 mm 0.00 in0.0 mm 0.05 in1.3 mm
12:21 AM 50.9°F10.5°C 50.6°F10.3°C 99% 4.5 mph SE7.2 kmh SE 9.8 mph15.8 kmh 29.14 in986.8 mb 0.09 in2.3 mm 0.00 in0.0 mm 0.05 in1.3 mm
12:20 AM 50.9°F10.5°C 50.6°F10.3°C 99% 4.5 mph SE7.2 kmh SE 9.8 mph15.8 kmh 29.15 in987.1 mb 0.09 in2.3 mm 0.00 in0.0 mm 0.05 in1.3 mm
12:19 AM 50.9°F10.5°C 50.6°F10.3°C 99% 2.2 mph SE3.5 kmh SE 9.2 mph14.8 kmh 29.15 in987.1 mb 0.09 in2.3 mm 0.60 in15.2 mm 0.05 in1.3 mm
12:18 AM 50.9°F10.5°C 50.6°F10.3°C 99% 3.1 mph SE5.0 kmh SE 9.2 mph14.8 kmh 29.15 in987.1 mb 0.08 in2.0 mm 0.00 in0.0 mm 0.04 in1.0 mm
12:17 AM 51.1°F10.6°C 50.8°F10.4°C 99% 3.8 mph ESE6.1 kmh ESE 9.2 mph14.8 kmh 29.16 in987.5 mb 0.08 in2.0 mm 0.00 in0.0 mm 0.04 in1.0 mm
12:16 AM 50.9°F10.5°C 50.6°F10.3°C 99% 2.2 mph ESE3.5 kmh ESE 9.2 mph14.8 kmh 29.16 in987.5 mb 0.08 in2.0 mm 0.00 in0.0 mm 0.04 in1.0 mm
12:15 AM 51.1°F10.6°C 50.8°F10.4°C 99% 4.5 mph ESE7.2 kmh ESE 9.2 mph14.8 kmh 29.16 in987.5 mb 0.08 in2.0 mm 0.00 in0.0 mm 0.04 in1.0 mm
12:14 AM 51.1°F10.6°C 50.8°F10.4°C 99% 1.6 mph ESE2.6 kmh ESE 9.2 mph14.8 kmh 29.16 in987.5 mb 0.08 in2.0 mm 0.60 in15.2 mm 0.04 in1.0 mm
12:13 AM 51.1°F10.6°C 50.8°F10.4°C 99% 3.1 mph ESE5.0 kmh ESE 9.2 mph14.8 kmh 29.16 in987.5 mb 0.07 in1.8 mm 0.00 in0.0 mm 0.02 in0.5 mm
12:12 AM 51.1°F10.6°C 50.8°F10.4°C 99% 1.6 mph E2.6 kmh E 9.2 mph14.8 kmh 29.16 in987.5 mb 0.07 in1.8 mm 0.00 in0.0 mm 0.02 in0.5 mm
12:11 AM 51.1°F10.6°C 50.8°F10.4°C 99% 1.6 mph E2.6 kmh E 9.2 mph14.8 kmh 29.17 in987.8 mb 0.07 in1.8 mm 0.00 in0.0 mm 0.02 in0.5 mm
12:10 AM 51.3°F10.7°C 51.0°F10.6°C 99% 1.6 mph E2.6 kmh E 9.2 mph14.8 kmh 29.17 in987.8 mb 0.07 in1.8 mm 0.00 in0.0 mm 0.02 in0.5 mm
12:09 AM 51.3°F10.7°C 51.0°F10.6°C 99% 5.4 mph E8.7 kmh E 9.2 mph14.8 kmh 29.17 in987.8 mb 0.07 in1.8 mm 0.00 in0.0 mm 0.02 in0.5 mm
12:08 AM 51.3°F10.7°C 51.0°F10.6°C 99% 4.5 mph E7.2 kmh E 8.3 mph13.4 kmh 29.18 in988.1 mb 0.07 in1.8 mm 0.00 in0.0 mm 0.02 in0.5 mm
12:07 AM 51.3°F10.7°C 51.0°F10.6°C 99% 3.1 mph E5.0 kmh E 5.4 mph8.7 kmh 29.18 in988.1 mb 0.07 in1.8 mm 0.00 in0.0 mm 0.02 in0.5 mm
12:06 AM 51.3°F10.7°C 51.0°F10.6°C 99% 2.2 mph E3.5 kmh E 5.4 mph8.7 kmh 29.18 in988.1 mb 0.08 in2.0 mm 1.20 in30.5 mm 0.02 in0.5 mm
12:05 AM 51.4°F10.8°C 51.2°F10.7°C 99% 1.6 mph E2.6 kmh E 3.8 mph6.1 kmh 29.19 in988.5 mb 0.06 in1.5 mm 0.00 in0.0 mm 0.06 in1.5 mm
12:04 AM 51.4°F10.8°C 51.2°F10.7°C 99% 1.6 mph ESE2.6 kmh ESE 7.6 mph12.2 kmh 29.19 in988.5 mb 0.06 in1.5 mm 0.00 in0.0 mm 0.06 in1.5 mm
12:03 AM 51.4°F10.8°C 51.2°F10.7°C 99% 1.6 mph SE2.6 kmh SE 7.6 mph12.2 kmh 29.19 in988.5 mb 0.06 in1.5 mm 0.00 in0.0 mm 0.06 in1.5 mm
12:02 AM 51.4°F10.8°C 51.2°F10.7°C 99% 1.6 mph SSE2.6 kmh SSE 7.6 mph12.2 kmh 29.20 in988.8 mb 0.06 in1.5 mm 0.00 in0.0 mm 0.06 in1.5 mm
12:01 AM 51.4°F10.8°C 51.2°F10.7°C 99% 1.6 mph SSE2.6 kmh SSE 7.6 mph12.2 kmh 29.20 in988.8 mb 0.06 in1.5 mm 0.00 in0.0 mm 0.06 in1.5 mm
12:00 AM 51.4°F10.8°C 51.2°F10.7°C 99% 1.6 mph S2.6 kmh S 7.6 mph12.2 kmh 29.20 in988.8 mb 0.06 in1.5 mm 0.00 in0.0 mm 0.06 in1.5 mm